<?xml version="1.0" encoding="UTF-8" standalone="no" ?>
<gpx xmlns="http://www.topografix.com/GPX/1/1" xmlns:xsi="http://www.w3.org/2001/XMLSchema-instance" xsi:schemaLocation="http://www.topografix.com/GPX/1/1 http://www.topografix.com/GPX/1/1/gpx.xsd" version="1.1" creator="VisuGPX - https://www.visugpx.com">
  <metadata>
    <name>Rando - En partant du Col de Mure.</name>
    <desc><![CDATA[Randonnée bien sympa avec de jolies hameaux.]]></desc>
  </metadata>
  <trk>
    <name><![CDATA[14-MARS-21 11:58:07]]></name>
    <trkseg>
      <trkpt lat="44.87138" lon="4.70357">
        <ele>706.71</ele>
        <time>2021-03-14T07:32:26Z</time>
      </trkpt>
      <trkpt lat="44.87133" lon="4.70364">
        <ele>706.71</ele>
        <time>2021-03-14T07:32:30Z</time>
      </trkpt>
      <trkpt lat="44.87133" lon="4.70365">
        <ele>706.71</ele>
        <time>2021-03-14T07:32:36Z</time>
      </trkpt>
      <trkpt lat="44.87132" lon="4.70366">
        <ele>706.71</ele>
        <time>2021-03-14T07:32:38Z</time>
      </trkpt>
      <trkpt lat="44.87106" lon="4.70386">
        <ele>710.55</ele>
        <time>2021-03-14T07:32:52Z</time>
      </trkpt>
      <trkpt lat="44.87101" lon="4.70392">
        <ele>708.15</ele>
        <time>2021-03-14T07:32:56Z</time>
      </trkpt>
      <trkpt lat="44.87095" lon="4.70398">
        <ele>708.15</ele>
        <time>2021-03-14T07:33:00Z</time>
      </trkpt>
      <trkpt lat="44.87089" lon="4.70401">
        <ele>708.15</ele>
        <time>2021-03-14T07:33:05Z</time>
      </trkpt>
      <trkpt lat="44.87077" lon="4.70404">
        <ele>706.23</ele>
        <time>2021-03-14T07:33:20Z</time>
      </trkpt>
      <trkpt lat="44.87073" lon="4.70414">
        <ele>706.23</ele>
        <time>2021-03-14T07:33:41Z</time>
      </trkpt>
      <trkpt lat="44.87072" lon="4.70415">
        <ele>706.71</ele>
        <time>2021-03-14T07:34:11Z</time>
      </trkpt>
      <trkpt lat="44.87072" lon="4.70415">
        <ele>707.19</ele>
        <time>2021-03-14T07:34:17Z</time>
      </trkpt>
      <trkpt lat="44.87075" lon="4.70416">
        <ele>707.67</ele>
        <time>2021-03-14T07:34:20Z</time>
      </trkpt>
      <trkpt lat="44.87082" lon="4.70416">
        <ele>709.11</ele>
        <time>2021-03-14T07:34:28Z</time>
      </trkpt>
      <trkpt lat="44.87085" lon="4.70417">
        <ele>710.07</ele>
        <time>2021-03-14T07:34:32Z</time>
      </trkpt>
      <trkpt lat="44.8709" lon="4.70414">
        <ele>710.07</ele>
        <time>2021-03-14T07:34:40Z</time>
      </trkpt>
      <trkpt lat="44.871" lon="4.70412">
        <ele>709.11</ele>
        <time>2021-03-14T07:34:48Z</time>
      </trkpt>
      <trkpt lat="44.87112" lon="4.70401">
        <ele>707.67</ele>
        <time>2021-03-14T07:34:58Z</time>
      </trkpt>
      <trkpt lat="44.87115" lon="4.70401">
        <ele>707.19</ele>
        <time>2021-03-14T07:35:01Z</time>
      </trkpt>
      <trkpt lat="44.87117" lon="4.70401">
        <ele>706.71</ele>
        <time>2021-03-14T07:35:03Z</time>
      </trkpt>
      <trkpt lat="44.87119" lon="4.70403">
        <ele>706.23</ele>
        <time>2021-03-14T07:35:05Z</time>
      </trkpt>
      <trkpt lat="44.87123" lon="4.7041">
        <ele>705.75</ele>
        <time>2021-03-14T07:35:14Z</time>
      </trkpt>
      <trkpt lat="44.87124" lon="4.70412">
        <ele>705.26</ele>
        <time>2021-03-14T07:35:16Z</time>
      </trkpt>
      <trkpt lat="44.8713" lon="4.70423">
        <ele>704.78</ele>
        <time>2021-03-14T07:35:29Z</time>
      </trkpt>
      <trkpt lat="44.8713" lon="4.70425">
        <ele>705.26</ele>
        <time>2021-03-14T07:35:32Z</time>
      </trkpt>
      <trkpt lat="44.87131" lon="4.70428">
        <ele>705.26</ele>
        <time>2021-03-14T07:35:34Z</time>
      </trkpt>
      <trkpt lat="44.87134" lon="4.70437">
        <ele>704.78</ele>
        <time>2021-03-14T07:35:39Z</time>
      </trkpt>
      <trkpt lat="44.87136" lon="4.70444">
        <ele>703.82</ele>
        <time>2021-03-14T07:35:42Z</time>
      </trkpt>
      <trkpt lat="44.87141" lon="4.70456">
        <ele>703.34</ele>
        <time>2021-03-14T07:35:47Z</time>
      </trkpt>
      <trkpt lat="44.87146" lon="4.70468">
        <ele>702.38</ele>
        <time>2021-03-14T07:35:54Z</time>
      </trkpt>
      <trkpt lat="44.87162" lon="4.70493">
        <ele>700.94</ele>
        <time>2021-03-14T07:36:11Z</time>
      </trkpt>
      <trkpt lat="44.87165" lon="4.70498">
        <ele>699.98</ele>
        <time>2021-03-14T07:36:16Z</time>
      </trkpt>
      <trkpt lat="44.87169" lon="4.70507">
        <ele>699.5</ele>
        <time>2021-03-14T07:36:21Z</time>
      </trkpt>
      <trkpt lat="44.87193" lon="4.70536">
        <ele>696.61</ele>
        <time>2021-03-14T07:36:41Z</time>
      </trkpt>
      <trkpt lat="44.87199" lon="4.70541">
        <ele>695.65</ele>
        <time>2021-03-14T07:36:46Z</time>
      </trkpt>
      <trkpt lat="44.87228" lon="4.70554">
        <ele>694.21</ele>
        <time>2021-03-14T07:37:02Z</time>
      </trkpt>
      <trkpt lat="44.87254" lon="4.70556">
        <ele>692.77</ele>
        <time>2021-03-14T07:37:17Z</time>
      </trkpt>
      <trkpt lat="44.8726" lon="4.70554">
        <ele>692.77</ele>
        <time>2021-03-14T07:37:21Z</time>
      </trkpt>
      <trkpt lat="44.87274" lon="4.70555">
        <ele>692.29</ele>
        <time>2021-03-14T07:37:31Z</time>
      </trkpt>
      <trkpt lat="44.87297" lon="4.70553">
        <ele>690.84</ele>
        <time>2021-03-14T07:37:45Z</time>
      </trkpt>
      <trkpt lat="44.87304" lon="4.70552">
        <ele>690.36</ele>
        <time>2021-03-14T07:37:50Z</time>
      </trkpt>
      <trkpt lat="44.87326" lon="4.70551">
        <ele>689.4</ele>
        <time>2021-03-14T07:38:03Z</time>
      </trkpt>
      <trkpt lat="44.87357" lon="4.70553">
        <ele>688.92</ele>
        <time>2021-03-14T07:38:18Z</time>
      </trkpt>
      <trkpt lat="44.8738" lon="4.70555">
        <ele>687</ele>
        <time>2021-03-14T07:38:34Z</time>
      </trkpt>
      <trkpt lat="44.87398" lon="4.7057">
        <ele>685.56</ele>
        <time>2021-03-14T07:38:47Z</time>
      </trkpt>
      <trkpt lat="44.87413" lon="4.70582">
        <ele>686.52</ele>
        <time>2021-03-14T07:38:59Z</time>
      </trkpt>
      <trkpt lat="44.87432" lon="4.70604">
        <ele>683.63</ele>
        <time>2021-03-14T07:39:13Z</time>
      </trkpt>
      <trkpt lat="44.87437" lon="4.70609">
        <ele>683.63</ele>
        <time>2021-03-14T07:39:16Z</time>
      </trkpt>
      <trkpt lat="44.87439" lon="4.70643">
        <ele>682.19</ele>
        <time>2021-03-14T07:39:32Z</time>
      </trkpt>
      <trkpt lat="44.87439" lon="4.70645">
        <ele>682.19</ele>
        <time>2021-03-14T07:39:33Z</time>
      </trkpt>
      <trkpt lat="44.87443" lon="4.70678">
        <ele>681.23</ele>
        <time>2021-03-14T07:39:49Z</time>
      </trkpt>
      <trkpt lat="44.87446" lon="4.70687">
        <ele>681.23</ele>
        <time>2021-03-14T07:39:55Z</time>
      </trkpt>
      <trkpt lat="44.87459" lon="4.70714">
        <ele>679.31</ele>
        <time>2021-03-14T07:40:11Z</time>
      </trkpt>
      <trkpt lat="44.8748" lon="4.70731">
        <ele>678.83</ele>
        <time>2021-03-14T07:40:27Z</time>
      </trkpt>
      <trkpt lat="44.87503" lon="4.70745">
        <ele>677.39</ele>
        <time>2021-03-14T07:40:42Z</time>
      </trkpt>
      <trkpt lat="44.87537" lon="4.70753">
        <ele>676.42</ele>
        <time>2021-03-14T07:40:58Z</time>
      </trkpt>
      <trkpt lat="44.87561" lon="4.70758">
        <ele>674.98</ele>
        <time>2021-03-14T07:41:13Z</time>
      </trkpt>
      <trkpt lat="44.87575" lon="4.70757">
        <ele>673.54</ele>
        <time>2021-03-14T07:41:28Z</time>
      </trkpt>
      <trkpt lat="44.87606" lon="4.70764">
        <ele>672.58</ele>
        <time>2021-03-14T07:41:44Z</time>
      </trkpt>
      <trkpt lat="44.87631" lon="4.70765">
        <ele>672.58</ele>
        <time>2021-03-14T07:41:59Z</time>
      </trkpt>
      <trkpt lat="44.87653" lon="4.70763">
        <ele>672.58</ele>
        <time>2021-03-14T07:42:12Z</time>
      </trkpt>
      <trkpt lat="44.87669" lon="4.70751">
        <ele>671.62</ele>
        <time>2021-03-14T07:42:22Z</time>
      </trkpt>
      <trkpt lat="44.87679" lon="4.70735">
        <ele>670.66</ele>
        <time>2021-03-14T07:42:33Z</time>
      </trkpt>
      <trkpt lat="44.87683" lon="4.70704">
        <ele>669.7</ele>
        <time>2021-03-14T07:42:47Z</time>
      </trkpt>
      <trkpt lat="44.87704" lon="4.7067">
        <ele>668.25</ele>
        <time>2021-03-14T07:43:04Z</time>
      </trkpt>
      <trkpt lat="44.87713" lon="4.70663">
        <ele>666.81</ele>
        <time>2021-03-14T07:43:19Z</time>
      </trkpt>
      <trkpt lat="44.87715" lon="4.70661">
        <ele>666.81</ele>
        <time>2021-03-14T07:43:21Z</time>
      </trkpt>
      <trkpt lat="44.87741" lon="4.70662">
        <ele>664.89</ele>
        <time>2021-03-14T07:43:35Z</time>
      </trkpt>
      <trkpt lat="44.87761" lon="4.70663">
        <ele>664.41</ele>
        <time>2021-03-14T07:43:48Z</time>
      </trkpt>
      <trkpt lat="44.87779" lon="4.70667">
        <ele>663.93</ele>
        <time>2021-03-14T07:44:00Z</time>
      </trkpt>
      <trkpt lat="44.8779" lon="4.70666">
        <ele>662.97</ele>
        <time>2021-03-14T07:44:13Z</time>
      </trkpt>
      <trkpt lat="44.87817" lon="4.70673">
        <ele>662.97</ele>
        <time>2021-03-14T07:44:30Z</time>
      </trkpt>
      <trkpt lat="44.87829" lon="4.70677">
        <ele>661.52</ele>
        <time>2021-03-14T07:44:43Z</time>
      </trkpt>
      <trkpt lat="44.87829" lon="4.70677">
        <ele>661.52</ele>
        <time>2021-03-14T07:45:00Z</time>
      </trkpt>
      <trkpt lat="44.87829" lon="4.70677">
        <ele>661.52</ele>
        <time>2021-03-14T07:45:17Z</time>
      </trkpt>
      <trkpt lat="44.87833" lon="4.70677">
        <ele>661.52</ele>
        <time>2021-03-14T07:45:20Z</time>
      </trkpt>
      <trkpt lat="44.8785" lon="4.70675">
        <ele>661.04</ele>
        <time>2021-03-14T07:45:28Z</time>
      </trkpt>
      <trkpt lat="44.87864" lon="4.70669">
        <ele>661.04</ele>
        <time>2021-03-14T07:45:35Z</time>
      </trkpt>
      <trkpt lat="44.87875" lon="4.70667">
        <ele>661.04</ele>
        <time>2021-03-14T07:45:41Z</time>
      </trkpt>
      <trkpt lat="44.87891" lon="4.70664">
        <ele>661.04</ele>
        <time>2021-03-14T07:45:47Z</time>
      </trkpt>
      <trkpt lat="44.87897" lon="4.70659">
        <ele>661.04</ele>
        <time>2021-03-14T07:45:51Z</time>
      </trkpt>
      <trkpt lat="44.87908" lon="4.70642">
        <ele>660.56</ele>
        <time>2021-03-14T07:45:59Z</time>
      </trkpt>
      <trkpt lat="44.87893" lon="4.70617">
        <ele>659.6</ele>
        <time>2021-03-14T07:46:11Z</time>
      </trkpt>
      <trkpt lat="44.87892" lon="4.70615">
        <ele>659.12</ele>
        <time>2021-03-14T07:46:12Z</time>
      </trkpt>
      <trkpt lat="44.87886" lon="4.70601">
        <ele>658.64</ele>
        <time>2021-03-14T07:46:18Z</time>
      </trkpt>
      <trkpt lat="44.87884" lon="4.706">
        <ele>658.64</ele>
        <time>2021-03-14T07:46:19Z</time>
      </trkpt>
      <trkpt lat="44.87879" lon="4.70581">
        <ele>657.68</ele>
        <time>2021-03-14T07:46:29Z</time>
      </trkpt>
      <trkpt lat="44.87868" lon="4.70555">
        <ele>656.72</ele>
        <time>2021-03-14T07:46:46Z</time>
      </trkpt>
      <trkpt lat="44.87866" lon="4.70552">
        <ele>656.72</ele>
        <time>2021-03-14T07:46:48Z</time>
      </trkpt>
      <trkpt lat="44.87859" lon="4.70541">
        <ele>656.24</ele>
        <time>2021-03-14T07:46:54Z</time>
      </trkpt>
      <trkpt lat="44.87842" lon="4.70515">
        <ele>654.8</ele>
        <time>2021-03-14T07:47:07Z</time>
      </trkpt>
      <trkpt lat="44.87829" lon="4.70495">
        <ele>653.35</ele>
        <time>2021-03-14T07:47:19Z</time>
      </trkpt>
      <trkpt lat="44.87824" lon="4.70487">
        <ele>653.35</ele>
        <time>2021-03-14T07:47:24Z</time>
      </trkpt>
      <trkpt lat="44.87818" lon="4.70472">
        <ele>652.39</ele>
        <time>2021-03-14T07:47:33Z</time>
      </trkpt>
      <trkpt lat="44.87811" lon="4.70454">
        <ele>651.43</ele>
        <time>2021-03-14T07:47:41Z</time>
      </trkpt>
      <trkpt lat="44.8779" lon="4.70427">
        <ele>650.47</ele>
        <time>2021-03-14T07:47:56Z</time>
      </trkpt>
      <trkpt lat="44.87784" lon="4.70399">
        <ele>647.59</ele>
        <time>2021-03-14T07:48:11Z</time>
      </trkpt>
      <trkpt lat="44.87784" lon="4.70382">
        <ele>647.1</ele>
        <time>2021-03-14T07:48:19Z</time>
      </trkpt>
      <trkpt lat="44.87783" lon="4.70368">
        <ele>645.66</ele>
        <time>2021-03-14T07:48:25Z</time>
      </trkpt>
      <trkpt lat="44.87783" lon="4.70358">
        <ele>645.18</ele>
        <time>2021-03-14T07:48:29Z</time>
      </trkpt>
      <trkpt lat="44.87782" lon="4.70347">
        <ele>645.66</ele>
        <time>2021-03-14T07:48:33Z</time>
      </trkpt>
      <trkpt lat="44.87783" lon="4.70313">
        <ele>645.66</ele>
        <time>2021-03-14T07:48:45Z</time>
      </trkpt>
      <trkpt lat="44.8779" lon="4.70285">
        <ele>644.7</ele>
        <time>2021-03-14T07:48:59Z</time>
      </trkpt>
      <trkpt lat="44.8779" lon="4.70269">
        <ele>643.74</ele>
        <time>2021-03-14T07:49:08Z</time>
      </trkpt>
      <trkpt lat="44.87792" lon="4.70249">
        <ele>644.7</ele>
        <time>2021-03-14T07:49:21Z</time>
      </trkpt>
      <trkpt lat="44.87798" lon="4.70232">
        <ele>644.7</ele>
        <time>2021-03-14T07:49:29Z</time>
      </trkpt>
      <trkpt lat="44.87802" lon="4.70211">
        <ele>644.7</ele>
        <time>2021-03-14T07:49:37Z</time>
      </trkpt>
      <trkpt lat="44.87806" lon="4.70205">
        <ele>645.18</ele>
        <time>2021-03-14T07:49:40Z</time>
      </trkpt>
      <trkpt lat="44.87822" lon="4.70192">
        <ele>643.74</ele>
        <time>2021-03-14T07:49:51Z</time>
      </trkpt>
      <trkpt lat="44.87827" lon="4.7019">
        <ele>643.26</ele>
        <time>2021-03-14T07:49:56Z</time>
      </trkpt>
      <trkpt lat="44.87829" lon="4.70189">
        <ele>642.78</ele>
        <time>2021-03-14T07:50:08Z</time>
      </trkpt>
      <trkpt lat="44.87829" lon="4.70187">
        <ele>642.78</ele>
        <time>2021-03-14T07:50:22Z</time>
      </trkpt>
      <trkpt lat="44.87843" lon="4.70172">
        <ele>642.3</ele>
        <time>2021-03-14T07:50:35Z</time>
      </trkpt>
      <trkpt lat="44.87859" lon="4.70163">
        <ele>641.82</ele>
        <time>2021-03-14T07:50:50Z</time>
      </trkpt>
      <trkpt lat="44.87868" lon="4.70161">
        <ele>641.34</ele>
        <time>2021-03-14T07:50:57Z</time>
      </trkpt>
      <trkpt lat="44.87885" lon="4.70149">
        <ele>641.82</ele>
        <time>2021-03-14T07:51:07Z</time>
      </trkpt>
      <trkpt lat="44.87906" lon="4.7013">
        <ele>641.34</ele>
        <time>2021-03-14T07:51:21Z</time>
      </trkpt>
      <trkpt lat="44.87919" lon="4.70103">
        <ele>641.34</ele>
        <time>2021-03-14T07:51:38Z</time>
      </trkpt>
      <trkpt lat="44.87931" lon="4.70086">
        <ele>640.86</ele>
        <time>2021-03-14T07:51:51Z</time>
      </trkpt>
      <trkpt lat="44.87934" lon="4.70078">
        <ele>640.38</ele>
        <time>2021-03-14T07:51:56Z</time>
      </trkpt>
      <trkpt lat="44.87948" lon="4.70053">
        <ele>640.38</ele>
        <time>2021-03-14T07:52:07Z</time>
      </trkpt>
      <trkpt lat="44.87952" lon="4.70048">
        <ele>640.38</ele>
        <time>2021-03-14T07:52:10Z</time>
      </trkpt>
      <trkpt lat="44.87965" lon="4.70033">
        <ele>639.89</ele>
        <time>2021-03-14T07:52:20Z</time>
      </trkpt>
      <trkpt lat="44.8797" lon="4.70026">
        <ele>639.89</ele>
        <time>2021-03-14T07:52:24Z</time>
      </trkpt>
      <trkpt lat="44.87979" lon="4.70012">
        <ele>638.93</ele>
        <time>2021-03-14T07:52:36Z</time>
      </trkpt>
      <trkpt lat="44.87978" lon="4.69999">
        <ele>637.97</ele>
        <time>2021-03-14T07:52:48Z</time>
      </trkpt>
      <trkpt lat="44.87986" lon="4.69987">
        <ele>637.97</ele>
        <time>2021-03-14T07:53:04Z</time>
      </trkpt>
      <trkpt lat="44.88001" lon="4.69978">
        <ele>637.97</ele>
        <time>2021-03-14T07:53:19Z</time>
      </trkpt>
      <trkpt lat="44.88023" lon="4.69968">
        <ele>637.01</ele>
        <time>2021-03-14T07:53:37Z</time>
      </trkpt>
      <trkpt lat="44.88051" lon="4.69959">
        <ele>636.53</ele>
        <time>2021-03-14T07:53:53Z</time>
      </trkpt>
      <trkpt lat="44.88081" lon="4.69949">
        <ele>635.09</ele>
        <time>2021-03-14T07:54:10Z</time>
      </trkpt>
      <trkpt lat="44.88104" lon="4.69943">
        <ele>633.65</ele>
        <time>2021-03-14T07:54:29Z</time>
      </trkpt>
      <trkpt lat="44.88104" lon="4.69943">
        <ele>634.13</ele>
        <time>2021-03-14T07:54:49Z</time>
      </trkpt>
      <trkpt lat="44.88107" lon="4.69941">
        <ele>632.68</ele>
        <time>2021-03-14T07:55:00Z</time>
      </trkpt>
      <trkpt lat="44.88107" lon="4.69941">
        <ele>632.2</ele>
        <time>2021-03-14T07:55:11Z</time>
      </trkpt>
      <trkpt lat="44.88116" lon="4.69936">
        <ele>631.24</ele>
        <time>2021-03-14T07:55:25Z</time>
      </trkpt>
      <trkpt lat="44.8812" lon="4.69934">
        <ele>630.76</ele>
        <time>2021-03-14T07:55:38Z</time>
      </trkpt>
      <trkpt lat="44.88125" lon="4.69933">
        <ele>629.32</ele>
        <time>2021-03-14T07:55:49Z</time>
      </trkpt>
      <trkpt lat="44.88255" lon="4.69929">
        <ele>628.84</ele>
        <time>2021-03-14T07:56:02Z</time>
      </trkpt>
      <trkpt lat="44.88274" lon="4.69936">
        <ele>628.36</ele>
        <time>2021-03-14T07:56:16Z</time>
      </trkpt>
      <trkpt lat="44.88299" lon="4.69943">
        <ele>627.88</ele>
        <time>2021-03-14T07:56:31Z</time>
      </trkpt>
      <trkpt lat="44.88318" lon="4.69959">
        <ele>627.4</ele>
        <time>2021-03-14T07:56:46Z</time>
      </trkpt>
      <trkpt lat="44.88324" lon="4.69982">
        <ele>626.44</ele>
        <time>2021-03-14T07:56:58Z</time>
      </trkpt>
      <trkpt lat="44.88318" lon="4.7001">
        <ele>625.47</ele>
        <time>2021-03-14T07:57:13Z</time>
      </trkpt>
      <trkpt lat="44.88317" lon="4.70013">
        <ele>625.47</ele>
        <time>2021-03-14T07:57:15Z</time>
      </trkpt>
      <trkpt lat="44.88314" lon="4.70021">
        <ele>625.47</ele>
        <time>2021-03-14T07:57:19Z</time>
      </trkpt>
      <trkpt lat="44.88309" lon="4.70037">
        <ele>625.96</ele>
        <time>2021-03-14T07:57:29Z</time>
      </trkpt>
      <trkpt lat="44.88309" lon="4.70047">
        <ele>625.96</ele>
        <time>2021-03-14T07:57:34Z</time>
      </trkpt>
      <trkpt lat="44.88316" lon="4.70075">
        <ele>624.99</ele>
        <time>2021-03-14T07:57:48Z</time>
      </trkpt>
      <trkpt lat="44.8832" lon="4.70095">
        <ele>624.03</ele>
        <time>2021-03-14T07:58:02Z</time>
      </trkpt>
      <trkpt lat="44.88329" lon="4.7011">
        <ele>623.55</ele>
        <time>2021-03-14T07:58:11Z</time>
      </trkpt>
      <trkpt lat="44.88332" lon="4.70116">
        <ele>624.03</ele>
        <time>2021-03-14T07:58:28Z</time>
      </trkpt>
      <trkpt lat="44.88334" lon="4.70118">
        <ele>624.03</ele>
        <time>2021-03-14T07:58:32Z</time>
      </trkpt>
      <trkpt lat="44.88357" lon="4.70133">
        <ele>623.55</ele>
        <time>2021-03-14T07:58:48Z</time>
      </trkpt>
      <trkpt lat="44.88361" lon="4.70136">
        <ele>623.55</ele>
        <time>2021-03-14T07:58:52Z</time>
      </trkpt>
      <trkpt lat="44.88386" lon="4.70151">
        <ele>623.07</ele>
        <time>2021-03-14T07:59:07Z</time>
      </trkpt>
      <trkpt lat="44.88404" lon="4.70161">
        <ele>622.59</ele>
        <time>2021-03-14T07:59:23Z</time>
      </trkpt>
      <trkpt lat="44.88406" lon="4.70162">
        <ele>622.59</ele>
        <time>2021-03-14T07:59:25Z</time>
      </trkpt>
      <trkpt lat="44.8841" lon="4.70166">
        <ele>622.59</ele>
        <time>2021-03-14T07:59:29Z</time>
      </trkpt>
      <trkpt lat="44.88418" lon="4.70174">
        <ele>622.11</ele>
        <time>2021-03-14T07:59:38Z</time>
      </trkpt>
      <trkpt lat="44.88432" lon="4.70191">
        <ele>621.15</ele>
        <time>2021-03-14T07:59:50Z</time>
      </trkpt>
      <trkpt lat="44.88433" lon="4.70194">
        <ele>620.67</ele>
        <time>2021-03-14T07:59:52Z</time>
      </trkpt>
      <trkpt lat="44.88435" lon="4.70203">
        <ele>620.19</ele>
        <time>2021-03-14T07:59:58Z</time>
      </trkpt>
      <trkpt lat="44.88445" lon="4.7022">
        <ele>619.23</ele>
        <time>2021-03-14T08:00:09Z</time>
      </trkpt>
      <trkpt lat="44.8845" lon="4.70235">
        <ele>618.26</ele>
        <time>2021-03-14T08:00:20Z</time>
      </trkpt>
      <trkpt lat="44.88451" lon="4.70239">
        <ele>617.78</ele>
        <time>2021-03-14T08:00:22Z</time>
      </trkpt>
      <trkpt lat="44.88465" lon="4.70265">
        <ele>616.34</ele>
        <time>2021-03-14T08:00:34Z</time>
      </trkpt>
      <trkpt lat="44.88471" lon="4.70283">
        <ele>615.86</ele>
        <time>2021-03-14T08:00:41Z</time>
      </trkpt>
      <trkpt lat="44.88476" lon="4.703">
        <ele>615.38</ele>
        <time>2021-03-14T08:00:54Z</time>
      </trkpt>
      <trkpt lat="44.88488" lon="4.70327">
        <ele>614.9</ele>
        <time>2021-03-14T08:01:06Z</time>
      </trkpt>
      <trkpt lat="44.88492" lon="4.70335">
        <ele>614.42</ele>
        <time>2021-03-14T08:01:10Z</time>
      </trkpt>
      <trkpt lat="44.88489" lon="4.70353">
        <ele>612.98</ele>
        <time>2021-03-14T08:01:19Z</time>
      </trkpt>
      <trkpt lat="44.88494" lon="4.70379">
        <ele>612.98</ele>
        <time>2021-03-14T08:01:33Z</time>
      </trkpt>
      <trkpt lat="44.885" lon="4.70407">
        <ele>612.5</ele>
        <time>2021-03-14T08:01:45Z</time>
      </trkpt>
      <trkpt lat="44.88503" lon="4.70428">
        <ele>611.54</ele>
        <time>2021-03-14T08:02:01Z</time>
      </trkpt>
      <trkpt lat="44.88503" lon="4.7043">
        <ele>611.54</ele>
        <time>2021-03-14T08:02:02Z</time>
      </trkpt>
      <trkpt lat="44.88487" lon="4.7047">
        <ele>611.06</ele>
        <time>2021-03-14T08:02:19Z</time>
      </trkpt>
      <trkpt lat="44.88482" lon="4.70479">
        <ele>611.06</ele>
        <time>2021-03-14T08:02:22Z</time>
      </trkpt>
      <trkpt lat="44.88476" lon="4.70509">
        <ele>610.57</ele>
        <time>2021-03-14T08:02:38Z</time>
      </trkpt>
      <trkpt lat="44.88468" lon="4.70542">
        <ele>610.09</ele>
        <time>2021-03-14T08:02:57Z</time>
      </trkpt>
      <trkpt lat="44.88466" lon="4.70556">
        <ele>610.09</ele>
        <time>2021-03-14T08:03:03Z</time>
      </trkpt>
      <trkpt lat="44.88468" lon="4.70585">
        <ele>609.61</ele>
        <time>2021-03-14T08:03:18Z</time>
      </trkpt>
      <trkpt lat="44.88463" lon="4.70593">
        <ele>609.61</ele>
        <time>2021-03-14T08:03:30Z</time>
      </trkpt>
      <trkpt lat="44.88466" lon="4.70603">
        <ele>610.09</ele>
        <time>2021-03-14T08:03:35Z</time>
      </trkpt>
      <trkpt lat="44.8847" lon="4.7061">
        <ele>610.09</ele>
        <time>2021-03-14T08:03:41Z</time>
      </trkpt>
      <trkpt lat="44.88491" lon="4.70619">
        <ele>609.61</ele>
        <time>2021-03-14T08:03:51Z</time>
      </trkpt>
      <trkpt lat="44.88495" lon="4.70624">
        <ele>610.57</ele>
        <time>2021-03-14T08:04:03Z</time>
      </trkpt>
      <trkpt lat="44.88498" lon="4.70622">
        <ele>611.06</ele>
        <time>2021-03-14T08:04:09Z</time>
      </trkpt>
      <trkpt lat="44.88492" lon="4.70617">
        <ele>609.61</ele>
        <time>2021-03-14T08:04:20Z</time>
      </trkpt>
      <trkpt lat="44.88506" lon="4.70608">
        <ele>608.17</ele>
        <time>2021-03-14T08:04:34Z</time>
      </trkpt>
      <trkpt lat="44.88508" lon="4.70607">
        <ele>608.65</ele>
        <time>2021-03-14T08:04:36Z</time>
      </trkpt>
      <trkpt lat="44.88524" lon="4.70601">
        <ele>607.69</ele>
        <time>2021-03-14T08:04:49Z</time>
      </trkpt>
      <trkpt lat="44.88525" lon="4.706">
        <ele>607.69</ele>
        <time>2021-03-14T08:04:50Z</time>
      </trkpt>
      <trkpt lat="44.88524" lon="4.70599">
        <ele>607.69</ele>
        <time>2021-03-14T08:05:03Z</time>
      </trkpt>
      <trkpt lat="44.88524" lon="4.70599">
        <ele>607.69</ele>
        <time>2021-03-14T08:05:22Z</time>
      </trkpt>
      <trkpt lat="44.88524" lon="4.70598">
        <ele>607.69</ele>
        <time>2021-03-14T08:05:52Z</time>
      </trkpt>
      <trkpt lat="44.88526" lon="4.70599">
        <ele>608.65</ele>
        <time>2021-03-14T08:06:08Z</time>
      </trkpt>
      <trkpt lat="44.88533" lon="4.70598">
        <ele>608.17</ele>
        <time>2021-03-14T08:06:12Z</time>
      </trkpt>
      <trkpt lat="44.8855" lon="4.70595">
        <ele>608.17</ele>
        <time>2021-03-14T08:06:26Z</time>
      </trkpt>
      <trkpt lat="44.88558" lon="4.70592">
        <ele>608.17</ele>
        <time>2021-03-14T08:06:36Z</time>
      </trkpt>
      <trkpt lat="44.88562" lon="4.70592">
        <ele>607.69</ele>
        <time>2021-03-14T08:06:38Z</time>
      </trkpt>
      <trkpt lat="44.88579" lon="4.70586">
        <ele>607.21</ele>
        <time>2021-03-14T08:06:53Z</time>
      </trkpt>
      <trkpt lat="44.88593" lon="4.7058">
        <ele>606.73</ele>
        <time>2021-03-14T08:07:04Z</time>
      </trkpt>
      <trkpt lat="44.88614" lon="4.70566">
        <ele>605.77</ele>
        <time>2021-03-14T08:07:20Z</time>
      </trkpt>
      <trkpt lat="44.88615" lon="4.70565">
        <ele>605.77</ele>
        <time>2021-03-14T08:07:21Z</time>
      </trkpt>
      <trkpt lat="44.88625" lon="4.70547">
        <ele>605.29</ele>
        <time>2021-03-14T08:07:31Z</time>
      </trkpt>
      <trkpt lat="44.88626" lon="4.70538">
        <ele>605.77</ele>
        <time>2021-03-14T08:07:36Z</time>
      </trkpt>
      <trkpt lat="44.88641" lon="4.70535">
        <ele>606.73</ele>
        <time>2021-03-14T08:07:48Z</time>
      </trkpt>
      <trkpt lat="44.88643" lon="4.70535">
        <ele>607.21</ele>
        <time>2021-03-14T08:07:50Z</time>
      </trkpt>
      <trkpt lat="44.88656" lon="4.70523">
        <ele>607.69</ele>
        <time>2021-03-14T08:08:01Z</time>
      </trkpt>
      <trkpt lat="44.88669" lon="4.70516">
        <ele>607.21</ele>
        <time>2021-03-14T08:08:13Z</time>
      </trkpt>
      <trkpt lat="44.88677" lon="4.70521">
        <ele>607.21</ele>
        <time>2021-03-14T08:08:19Z</time>
      </trkpt>
      <trkpt lat="44.88679" lon="4.70527">
        <ele>606.73</ele>
        <time>2021-03-14T08:08:23Z</time>
      </trkpt>
      <trkpt lat="44.88684" lon="4.70533">
        <ele>607.21</ele>
        <time>2021-03-14T08:08:29Z</time>
      </trkpt>
      <trkpt lat="44.88694" lon="4.70543">
        <ele>604.81</ele>
        <time>2021-03-14T08:08:40Z</time>
      </trkpt>
      <trkpt lat="44.88708" lon="4.70562">
        <ele>601.92</ele>
        <time>2021-03-14T08:08:55Z</time>
      </trkpt>
      <trkpt lat="44.88719" lon="4.70579">
        <ele>600.48</ele>
        <time>2021-03-14T08:09:07Z</time>
      </trkpt>
      <trkpt lat="44.88725" lon="4.70585">
        <ele>599.04</ele>
        <time>2021-03-14T08:09:22Z</time>
      </trkpt>
      <trkpt lat="44.88725" lon="4.70585">
        <ele>599.52</ele>
        <time>2021-03-14T08:09:47Z</time>
      </trkpt>
      <trkpt lat="44.88725" lon="4.70585">
        <ele>599.52</ele>
        <time>2021-03-14T08:10:14Z</time>
      </trkpt>
      <trkpt lat="44.88726" lon="4.70586">
        <ele>600</ele>
        <time>2021-03-14T08:10:37Z</time>
      </trkpt>
      <trkpt lat="44.88728" lon="4.70588">
        <ele>599.52</ele>
        <time>2021-03-14T08:10:39Z</time>
      </trkpt>
      <trkpt lat="44.88735" lon="4.70593">
        <ele>598.56</ele>
        <time>2021-03-14T08:10:46Z</time>
      </trkpt>
      <trkpt lat="44.8874" lon="4.70596">
        <ele>598.56</ele>
        <time>2021-03-14T08:10:50Z</time>
      </trkpt>
      <trkpt lat="44.88757" lon="4.70603">
        <ele>598.08</ele>
        <time>2021-03-14T08:11:04Z</time>
      </trkpt>
      <trkpt lat="44.88762" lon="4.70602">
        <ele>598.08</ele>
        <time>2021-03-14T08:11:17Z</time>
      </trkpt>
      <trkpt lat="44.88762" lon="4.70602">
        <ele>598.08</ele>
        <time>2021-03-14T08:11:38Z</time>
      </trkpt>
      <trkpt lat="44.88763" lon="4.70602">
        <ele>598.56</ele>
        <time>2021-03-14T08:11:53Z</time>
      </trkpt>
      <trkpt lat="44.88763" lon="4.70602">
        <ele>598.56</ele>
        <time>2021-03-14T08:12:18Z</time>
      </trkpt>
      <trkpt lat="44.88763" lon="4.70602">
        <ele>599.04</ele>
        <time>2021-03-14T08:12:51Z</time>
      </trkpt>
      <trkpt lat="44.88765" lon="4.70601">
        <ele>598.56</ele>
        <time>2021-03-14T08:13:07Z</time>
      </trkpt>
      <trkpt lat="44.88763" lon="4.70603">
        <ele>598.56</ele>
        <time>2021-03-14T08:13:23Z</time>
      </trkpt>
      <trkpt lat="44.88762" lon="4.70603">
        <ele>598.08</ele>
        <time>2021-03-14T08:13:38Z</time>
      </trkpt>
      <trkpt lat="44.88762" lon="4.70603">
        <ele>599.04</ele>
        <time>2021-03-14T08:13:42Z</time>
      </trkpt>
      <trkpt lat="44.88762" lon="4.70603">
        <ele>600.48</ele>
        <time>2021-03-14T08:13:52Z</time>
      </trkpt>
      <trkpt lat="44.88762" lon="4.70603">
        <ele>599.04</ele>
        <time>2021-03-14T08:13:54Z</time>
      </trkpt>
      <trkpt lat="44.88763" lon="4.70603">
        <ele>599.52</ele>
        <time>2021-03-14T08:14:22Z</time>
      </trkpt>
      <trkpt lat="44.88765" lon="4.706">
        <ele>600</ele>
        <time>2021-03-14T08:14:34Z</time>
      </trkpt>
      <trkpt lat="44.88772" lon="4.70581">
        <ele>600.96</ele>
        <time>2021-03-14T08:14:47Z</time>
      </trkpt>
      <trkpt lat="44.88776" lon="4.70566">
        <ele>601.92</ele>
        <time>2021-03-14T08:15:00Z</time>
      </trkpt>
      <trkpt lat="44.88782" lon="4.70544">
        <ele>601.92</ele>
        <time>2021-03-14T08:15:12Z</time>
      </trkpt>
      <trkpt lat="44.8879" lon="4.70517">
        <ele>601.92</ele>
        <time>2021-03-14T08:15:27Z</time>
      </trkpt>
      <trkpt lat="44.88791" lon="4.70515">
        <ele>601.92</ele>
        <time>2021-03-14T08:15:28Z</time>
      </trkpt>
      <trkpt lat="44.88791" lon="4.70511">
        <ele>601.92</ele>
        <time>2021-03-14T08:15:30Z</time>
      </trkpt>
      <trkpt lat="44.88793" lon="4.70499">
        <ele>602.4</ele>
        <time>2021-03-14T08:15:36Z</time>
      </trkpt>
      <trkpt lat="44.888" lon="4.70475">
        <ele>601.92</ele>
        <time>2021-03-14T08:15:50Z</time>
      </trkpt>
      <trkpt lat="44.88808" lon="4.70448">
        <ele>601.44</ele>
        <time>2021-03-14T08:16:06Z</time>
      </trkpt>
      <trkpt lat="44.88812" lon="4.70428">
        <ele>601.44</ele>
        <time>2021-03-14T08:16:16Z</time>
      </trkpt>
      <trkpt lat="44.88812" lon="4.70413">
        <ele>600</ele>
        <time>2021-03-14T08:16:27Z</time>
      </trkpt>
      <trkpt lat="44.88816" lon="4.70396">
        <ele>599.04</ele>
        <time>2021-03-14T08:16:37Z</time>
      </trkpt>
      <trkpt lat="44.88823" lon="4.70373">
        <ele>598.08</ele>
        <time>2021-03-14T08:16:50Z</time>
      </trkpt>
      <trkpt lat="44.88826" lon="4.70358">
        <ele>598.08</ele>
        <time>2021-03-14T08:16:59Z</time>
      </trkpt>
      <trkpt lat="44.88832" lon="4.70351">
        <ele>597.12</ele>
        <time>2021-03-14T08:17:04Z</time>
      </trkpt>
      <trkpt lat="44.88844" lon="4.7033">
        <ele>594.23</ele>
        <time>2021-03-14T08:17:20Z</time>
      </trkpt>
      <trkpt lat="44.88849" lon="4.7032">
        <ele>593.75</ele>
        <time>2021-03-14T08:17:27Z</time>
      </trkpt>
      <trkpt lat="44.88856" lon="4.70302">
        <ele>590.87</ele>
        <time>2021-03-14T08:17:41Z</time>
      </trkpt>
      <trkpt lat="44.88867" lon="4.70282">
        <ele>587.98</ele>
        <time>2021-03-14T08:17:56Z</time>
      </trkpt>
      <trkpt lat="44.88876" lon="4.70274">
        <ele>586.06</ele>
        <time>2021-03-14T08:18:09Z</time>
      </trkpt>
      <trkpt lat="44.88887" lon="4.70267">
        <ele>584.14</ele>
        <time>2021-03-14T08:18:24Z</time>
      </trkpt>
      <trkpt lat="44.88901" lon="4.70263">
        <ele>582.7</ele>
        <time>2021-03-14T08:18:40Z</time>
      </trkpt>
      <trkpt lat="44.88902" lon="4.70264">
        <ele>582.22</ele>
        <time>2021-03-14T08:18:44Z</time>
      </trkpt>
      <trkpt lat="44.88908" lon="4.70264">
        <ele>581.73</ele>
        <time>2021-03-14T08:18:51Z</time>
      </trkpt>
      <trkpt lat="44.88919" lon="4.70259">
        <ele>584.14</ele>
        <time>2021-03-14T08:19:05Z</time>
      </trkpt>
      <trkpt lat="44.88929" lon="4.7024">
        <ele>585.58</ele>
        <time>2021-03-14T08:19:17Z</time>
      </trkpt>
      <trkpt lat="44.88931" lon="4.70222">
        <ele>589.43</ele>
        <time>2021-03-14T08:19:33Z</time>
      </trkpt>
      <trkpt lat="44.88941" lon="4.70208">
        <ele>592.31</ele>
        <time>2021-03-14T08:19:50Z</time>
      </trkpt>
      <trkpt lat="44.88939" lon="4.70196">
        <ele>592.31</ele>
        <time>2021-03-14T08:19:57Z</time>
      </trkpt>
      <trkpt lat="44.88935" lon="4.70194">
        <ele>592.31</ele>
        <time>2021-03-14T08:19:59Z</time>
      </trkpt>
      <trkpt lat="44.8892" lon="4.70188">
        <ele>594.71</ele>
        <time>2021-03-14T08:20:11Z</time>
      </trkpt>
      <trkpt lat="44.88913" lon="4.70186">
        <ele>597.12</ele>
        <time>2021-03-14T08:20:25Z</time>
      </trkpt>
      <trkpt lat="44.88908" lon="4.70179">
        <ele>598.56</ele>
        <time>2021-03-14T08:20:36Z</time>
      </trkpt>
      <trkpt lat="44.88904" lon="4.70175">
        <ele>600.96</ele>
        <time>2021-03-14T08:20:49Z</time>
      </trkpt>
      <trkpt lat="44.88902" lon="4.70167">
        <ele>601.92</ele>
        <time>2021-03-14T08:21:03Z</time>
      </trkpt>
      <trkpt lat="44.88897" lon="4.7016">
        <ele>604.81</ele>
        <time>2021-03-14T08:21:14Z</time>
      </trkpt>
      <trkpt lat="44.88892" lon="4.70149">
        <ele>607.69</ele>
        <time>2021-03-14T08:21:27Z</time>
      </trkpt>
      <trkpt lat="44.88888" lon="4.70141">
        <ele>609.61</ele>
        <time>2021-03-14T08:21:34Z</time>
      </trkpt>
      <trkpt lat="44.88885" lon="4.70121">
        <ele>612.98</ele>
        <time>2021-03-14T08:21:50Z</time>
      </trkpt>
      <trkpt lat="44.88881" lon="4.70109">
        <ele>616.34</ele>
        <time>2021-03-14T08:22:05Z</time>
      </trkpt>
      <trkpt lat="44.88871" lon="4.70097">
        <ele>619.23</ele>
        <time>2021-03-14T08:22:21Z</time>
      </trkpt>
      <trkpt lat="44.88865" lon="4.70086">
        <ele>622.11</ele>
        <time>2021-03-14T08:22:36Z</time>
      </trkpt>
      <trkpt lat="44.88858" lon="4.70072">
        <ele>623.55</ele>
        <time>2021-03-14T08:22:49Z</time>
      </trkpt>
      <trkpt lat="44.88853" lon="4.70066">
        <ele>625.47</ele>
        <time>2021-03-14T08:22:59Z</time>
      </trkpt>
      <trkpt lat="44.88847" lon="4.70053">
        <ele>628.36</ele>
        <time>2021-03-14T08:23:14Z</time>
      </trkpt>
      <trkpt lat="44.88844" lon="4.70044">
        <ele>629.8</ele>
        <time>2021-03-14T08:23:23Z</time>
      </trkpt>
      <trkpt lat="44.88838" lon="4.70031">
        <ele>632.2</ele>
        <time>2021-03-14T08:23:37Z</time>
      </trkpt>
      <trkpt lat="44.88838" lon="4.70031">
        <ele>633.17</ele>
        <time>2021-03-14T08:23:38Z</time>
      </trkpt>
      <trkpt lat="44.88836" lon="4.70027">
        <ele>633.17</ele>
        <time>2021-03-14T08:23:41Z</time>
      </trkpt>
      <trkpt lat="44.88829" lon="4.70018">
        <ele>635.09</ele>
        <time>2021-03-14T08:23:54Z</time>
      </trkpt>
      <trkpt lat="44.88818" lon="4.70007">
        <ele>637.97</ele>
        <time>2021-03-14T08:24:07Z</time>
      </trkpt>
      <trkpt lat="44.88814" lon="4.70003">
        <ele>639.89</ele>
        <time>2021-03-14T08:24:19Z</time>
      </trkpt>
      <trkpt lat="44.88805" lon="4.69996">
        <ele>641.34</ele>
        <time>2021-03-14T08:24:32Z</time>
      </trkpt>
      <trkpt lat="44.88796" lon="4.69985">
        <ele>643.26</ele>
        <time>2021-03-14T08:24:47Z</time>
      </trkpt>
      <trkpt lat="44.8878" lon="4.69966">
        <ele>644.22</ele>
        <time>2021-03-14T08:25:03Z</time>
      </trkpt>
      <trkpt lat="44.88777" lon="4.69962">
        <ele>644.7</ele>
        <time>2021-03-14T08:25:22Z</time>
      </trkpt>
      <trkpt lat="44.88777" lon="4.69962">
        <ele>644.7</ele>
        <time>2021-03-14T08:25:35Z</time>
      </trkpt>
      <trkpt lat="44.88768" lon="4.69946">
        <ele>646.14</ele>
        <time>2021-03-14T08:25:44Z</time>
      </trkpt>
      <trkpt lat="44.88764" lon="4.69941">
        <ele>646.14</ele>
        <time>2021-03-14T08:25:48Z</time>
      </trkpt>
      <trkpt lat="44.88759" lon="4.69933">
        <ele>646.14</ele>
        <time>2021-03-14T08:25:55Z</time>
      </trkpt>
      <trkpt lat="44.88756" lon="4.69912">
        <ele>644.7</ele>
        <time>2021-03-14T08:26:09Z</time>
      </trkpt>
      <trkpt lat="44.88757" lon="4.69907">
        <ele>644.7</ele>
        <time>2021-03-14T08:26:13Z</time>
      </trkpt>
      <trkpt lat="44.88757" lon="4.69894">
        <ele>643.74</ele>
        <time>2021-03-14T08:26:22Z</time>
      </trkpt>
      <trkpt lat="44.88759" lon="4.69875">
        <ele>641.82</ele>
        <time>2021-03-14T08:26:35Z</time>
      </trkpt>
      <trkpt lat="44.88762" lon="4.69868">
        <ele>642.3</ele>
        <time>2021-03-14T08:26:38Z</time>
      </trkpt>
      <trkpt lat="44.88765" lon="4.69847">
        <ele>638.45</ele>
        <time>2021-03-14T08:26:53Z</time>
      </trkpt>
      <trkpt lat="44.88771" lon="4.69828">
        <ele>636.53</ele>
        <time>2021-03-14T08:27:08Z</time>
      </trkpt>
      <trkpt lat="44.88772" lon="4.69825">
        <ele>636.05</ele>
        <time>2021-03-14T08:27:10Z</time>
      </trkpt>
      <trkpt lat="44.88772" lon="4.69809">
        <ele>635.57</ele>
        <time>2021-03-14T08:27:18Z</time>
      </trkpt>
      <trkpt lat="44.88776" lon="4.69801">
        <ele>635.57</ele>
        <time>2021-03-14T08:27:23Z</time>
      </trkpt>
      <trkpt lat="44.88785" lon="4.69787">
        <ele>635.57</ele>
        <time>2021-03-14T08:27:35Z</time>
      </trkpt>
      <trkpt lat="44.88787" lon="4.69785">
        <ele>635.57</ele>
        <time>2021-03-14T08:27:37Z</time>
      </trkpt>
      <trkpt lat="44.88799" lon="4.69769">
        <ele>635.09</ele>
        <time>2021-03-14T08:27:49Z</time>
      </trkpt>
      <trkpt lat="44.8881" lon="4.69754">
        <ele>635.57</ele>
        <time>2021-03-14T08:28:02Z</time>
      </trkpt>
      <trkpt lat="44.88818" lon="4.69736">
        <ele>635.09</ele>
        <time>2021-03-14T08:28:12Z</time>
      </trkpt>
      <trkpt lat="44.88824" lon="4.69726">
        <ele>635.09</ele>
        <time>2021-03-14T08:28:21Z</time>
      </trkpt>
      <trkpt lat="44.88839" lon="4.69708">
        <ele>635.09</ele>
        <time>2021-03-14T08:28:35Z</time>
      </trkpt>
      <trkpt lat="44.88848" lon="4.69696">
        <ele>636.05</ele>
        <time>2021-03-14T08:28:47Z</time>
      </trkpt>
      <trkpt lat="44.88858" lon="4.69682">
        <ele>636.05</ele>
        <time>2021-03-14T08:29:02Z</time>
      </trkpt>
      <trkpt lat="44.88865" lon="4.69668">
        <ele>636.53</ele>
        <time>2021-03-14T08:29:10Z</time>
      </trkpt>
      <trkpt lat="44.88866" lon="4.69665">
        <ele>637.01</ele>
        <time>2021-03-14T08:29:12Z</time>
      </trkpt>
      <trkpt lat="44.88877" lon="4.69649">
        <ele>637.49</ele>
        <time>2021-03-14T08:29:25Z</time>
      </trkpt>
      <trkpt lat="44.88879" lon="4.69641">
        <ele>637.97</ele>
        <time>2021-03-14T08:29:31Z</time>
      </trkpt>
      <trkpt lat="44.88878" lon="4.69631">
        <ele>638.45</ele>
        <time>2021-03-14T08:29:37Z</time>
      </trkpt>
      <trkpt lat="44.88878" lon="4.69628">
        <ele>638.45</ele>
        <time>2021-03-14T08:29:39Z</time>
      </trkpt>
      <trkpt lat="44.8887" lon="4.69611">
        <ele>639.41</ele>
        <time>2021-03-14T08:29:54Z</time>
      </trkpt>
      <trkpt lat="44.88861" lon="4.69596">
        <ele>640.86</ele>
        <time>2021-03-14T08:30:07Z</time>
      </trkpt>
      <trkpt lat="44.88859" lon="4.69593">
        <ele>640.86</ele>
        <time>2021-03-14T08:30:09Z</time>
      </trkpt>
      <trkpt lat="44.88852" lon="4.69583">
        <ele>641.34</ele>
        <time>2021-03-14T08:30:17Z</time>
      </trkpt>
      <trkpt lat="44.88843" lon="4.69569">
        <ele>642.3</ele>
        <time>2021-03-14T08:30:29Z</time>
      </trkpt>
      <trkpt lat="44.88836" lon="4.69562">
        <ele>643.26</ele>
        <time>2021-03-14T08:30:36Z</time>
      </trkpt>
      <trkpt lat="44.88829" lon="4.69549">
        <ele>643.74</ele>
        <time>2021-03-14T08:30:49Z</time>
      </trkpt>
      <trkpt lat="44.88824" lon="4.69544">
        <ele>644.7</ele>
        <time>2021-03-14T08:30:56Z</time>
      </trkpt>
      <trkpt lat="44.88819" lon="4.69536">
        <ele>645.18</ele>
        <time>2021-03-14T08:31:02Z</time>
      </trkpt>
      <trkpt lat="44.88808" lon="4.69521">
        <ele>646.14</ele>
        <time>2021-03-14T08:31:17Z</time>
      </trkpt>
      <trkpt lat="44.88802" lon="4.69515">
        <ele>647.1</ele>
        <time>2021-03-14T08:31:24Z</time>
      </trkpt>
      <trkpt lat="44.88788" lon="4.69504">
        <ele>649.51</ele>
        <time>2021-03-14T08:31:39Z</time>
      </trkpt>
      <trkpt lat="44.88777" lon="4.6949">
        <ele>649.99</ele>
        <time>2021-03-14T08:31:57Z</time>
      </trkpt>
      <trkpt lat="44.88776" lon="4.69487">
        <ele>652.39</ele>
        <time>2021-03-14T08:32:06Z</time>
      </trkpt>
      <trkpt lat="44.88763" lon="4.69473">
        <ele>654.31</ele>
        <time>2021-03-14T08:32:20Z</time>
      </trkpt>
      <trkpt lat="44.88756" lon="4.6946">
        <ele>654.8</ele>
        <time>2021-03-14T08:32:33Z</time>
      </trkpt>
      <trkpt lat="44.88753" lon="4.69456">
        <ele>654.31</ele>
        <time>2021-03-14T08:32:45Z</time>
      </trkpt>
      <trkpt lat="44.88742" lon="4.69452">
        <ele>653.35</ele>
        <time>2021-03-14T08:32:58Z</time>
      </trkpt>
      <trkpt lat="44.8873" lon="4.69447">
        <ele>652.39</ele>
        <time>2021-03-14T08:33:06Z</time>
      </trkpt>
      <trkpt lat="44.88726" lon="4.69444">
        <ele>651.91</ele>
        <time>2021-03-14T08:33:09Z</time>
      </trkpt>
      <trkpt lat="44.88725" lon="4.69436">
        <ele>652.39</ele>
        <time>2021-03-14T08:33:21Z</time>
      </trkpt>
      <trkpt lat="44.88728" lon="4.69426">
        <ele>649.99</ele>
        <time>2021-03-14T08:33:32Z</time>
      </trkpt>
      <trkpt lat="44.88735" lon="4.69421">
        <ele>649.51</ele>
        <time>2021-03-14T08:33:38Z</time>
      </trkpt>
      <trkpt lat="44.88745" lon="4.69412">
        <ele>649.51</ele>
        <time>2021-03-14T08:33:51Z</time>
      </trkpt>
      <trkpt lat="44.88763" lon="4.69398">
        <ele>649.03</ele>
        <time>2021-03-14T08:34:06Z</time>
      </trkpt>
      <trkpt lat="44.88782" lon="4.69387">
        <ele>648.07</ele>
        <time>2021-03-14T08:34:22Z</time>
      </trkpt>
      <trkpt lat="44.88787" lon="4.69383">
        <ele>647.59</ele>
        <time>2021-03-14T08:34:28Z</time>
      </trkpt>
      <trkpt lat="44.88801" lon="4.69373">
        <ele>647.59</ele>
        <time>2021-03-14T08:34:38Z</time>
      </trkpt>
      <trkpt lat="44.88811" lon="4.69356">
        <ele>648.07</ele>
        <time>2021-03-14T08:34:49Z</time>
      </trkpt>
      <trkpt lat="44.88812" lon="4.69352">
        <ele>648.07</ele>
        <time>2021-03-14T08:34:52Z</time>
      </trkpt>
      <trkpt lat="44.88813" lon="4.69344">
        <ele>648.07</ele>
        <time>2021-03-14T08:34:56Z</time>
      </trkpt>
      <trkpt lat="44.88808" lon="4.69325">
        <ele>648.55</ele>
        <time>2021-03-14T08:35:04Z</time>
      </trkpt>
      <trkpt lat="44.88804" lon="4.69314">
        <ele>648.07</ele>
        <time>2021-03-14T08:35:12Z</time>
      </trkpt>
      <trkpt lat="44.88801" lon="4.69297">
        <ele>646.62</ele>
        <time>2021-03-14T08:35:20Z</time>
      </trkpt>
      <trkpt lat="44.888" lon="4.69288">
        <ele>646.14</ele>
        <time>2021-03-14T08:35:24Z</time>
      </trkpt>
      <trkpt lat="44.88802" lon="4.69283">
        <ele>645.18</ele>
        <time>2021-03-14T08:35:28Z</time>
      </trkpt>
      <trkpt lat="44.88803" lon="4.69259">
        <ele>643.74</ele>
        <time>2021-03-14T08:35:39Z</time>
      </trkpt>
      <trkpt lat="44.8881" lon="4.69237">
        <ele>643.26</ele>
        <time>2021-03-14T08:35:53Z</time>
      </trkpt>
      <trkpt lat="44.88821" lon="4.6922">
        <ele>642.78</ele>
        <time>2021-03-14T08:36:05Z</time>
      </trkpt>
      <trkpt lat="44.88826" lon="4.69215">
        <ele>642.3</ele>
        <time>2021-03-14T08:36:09Z</time>
      </trkpt>
      <trkpt lat="44.88834" lon="4.69208">
        <ele>642.78</ele>
        <time>2021-03-14T08:36:15Z</time>
      </trkpt>
      <trkpt lat="44.88849" lon="4.69201">
        <ele>642.3</ele>
        <time>2021-03-14T08:36:30Z</time>
      </trkpt>
      <trkpt lat="44.88869" lon="4.6919">
        <ele>642.3</ele>
        <time>2021-03-14T08:36:45Z</time>
      </trkpt>
      <trkpt lat="44.88882" lon="4.69175">
        <ele>642.3</ele>
        <time>2021-03-14T08:36:55Z</time>
      </trkpt>
      <trkpt lat="44.889" lon="4.6917">
        <ele>641.82</ele>
        <time>2021-03-14T08:37:11Z</time>
      </trkpt>
      <trkpt lat="44.8892" lon="4.69164">
        <ele>639.41</ele>
        <time>2021-03-14T08:37:25Z</time>
      </trkpt>
      <trkpt lat="44.88926" lon="4.69161">
        <ele>639.89</ele>
        <time>2021-03-14T08:37:30Z</time>
      </trkpt>
      <trkpt lat="44.88949" lon="4.69159">
        <ele>638.45</ele>
        <time>2021-03-14T08:37:45Z</time>
      </trkpt>
      <trkpt lat="44.88964" lon="4.69163">
        <ele>637.49</ele>
        <time>2021-03-14T08:37:58Z</time>
      </trkpt>
      <trkpt lat="44.8899" lon="4.69168">
        <ele>636.05</ele>
        <time>2021-03-14T08:38:17Z</time>
      </trkpt>
      <trkpt lat="44.8901" lon="4.69172">
        <ele>635.57</ele>
        <time>2021-03-14T08:38:34Z</time>
      </trkpt>
      <trkpt lat="44.89028" lon="4.6918">
        <ele>634.61</ele>
        <time>2021-03-14T08:38:49Z</time>
      </trkpt>
      <trkpt lat="44.89031" lon="4.69181">
        <ele>634.61</ele>
        <time>2021-03-14T08:38:51Z</time>
      </trkpt>
      <trkpt lat="44.89051" lon="4.69189">
        <ele>635.57</ele>
        <time>2021-03-14T08:39:05Z</time>
      </trkpt>
      <trkpt lat="44.89069" lon="4.69199">
        <ele>635.57</ele>
        <time>2021-03-14T08:39:20Z</time>
      </trkpt>
      <trkpt lat="44.89078" lon="4.69206">
        <ele>636.05</ele>
        <time>2021-03-14T08:39:29Z</time>
      </trkpt>
      <trkpt lat="44.89089" lon="4.69222">
        <ele>636.05</ele>
        <time>2021-03-14T08:39:43Z</time>
      </trkpt>
      <trkpt lat="44.8909" lon="4.69224">
        <ele>636.05</ele>
        <time>2021-03-14T08:39:45Z</time>
      </trkpt>
      <trkpt lat="44.89099" lon="4.69244">
        <ele>635.57</ele>
        <time>2021-03-14T08:39:57Z</time>
      </trkpt>
      <trkpt lat="44.891" lon="4.69251">
        <ele>635.57</ele>
        <time>2021-03-14T08:40:03Z</time>
      </trkpt>
      <trkpt lat="44.89102" lon="4.69254">
        <ele>636.05</ele>
        <time>2021-03-14T08:40:05Z</time>
      </trkpt>
      <trkpt lat="44.89117" lon="4.6929">
        <ele>636.05</ele>
        <time>2021-03-14T08:40:21Z</time>
      </trkpt>
      <trkpt lat="44.89118" lon="4.69293">
        <ele>636.05</ele>
        <time>2021-03-14T08:40:23Z</time>
      </trkpt>
      <trkpt lat="44.89123" lon="4.69302">
        <ele>635.57</ele>
        <time>2021-03-14T08:40:27Z</time>
      </trkpt>
      <trkpt lat="44.89132" lon="4.69318">
        <ele>637.01</ele>
        <time>2021-03-14T08:40:39Z</time>
      </trkpt>
      <trkpt lat="44.89147" lon="4.69333">
        <ele>637.49</ele>
        <time>2021-03-14T08:40:52Z</time>
      </trkpt>
      <trkpt lat="44.89161" lon="4.69342">
        <ele>637.97</ele>
        <time>2021-03-14T08:41:05Z</time>
      </trkpt>
      <trkpt lat="44.89179" lon="4.69348">
        <ele>637.97</ele>
        <time>2021-03-14T08:41:16Z</time>
      </trkpt>
      <trkpt lat="44.89184" lon="4.69351">
        <ele>637.97</ele>
        <time>2021-03-14T08:41:23Z</time>
      </trkpt>
      <trkpt lat="44.89188" lon="4.69353">
        <ele>637.49</ele>
        <time>2021-03-14T08:41:26Z</time>
      </trkpt>
      <trkpt lat="44.89206" lon="4.69365">
        <ele>637.49</ele>
        <time>2021-03-14T08:41:39Z</time>
      </trkpt>
      <trkpt lat="44.89208" lon="4.69367">
        <ele>637.97</ele>
        <time>2021-03-14T08:41:42Z</time>
      </trkpt>
      <trkpt lat="44.8921" lon="4.69371">
        <ele>637.49</ele>
        <time>2021-03-14T08:41:45Z</time>
      </trkpt>
      <trkpt lat="44.89213" lon="4.69376">
        <ele>637.97</ele>
        <time>2021-03-14T08:41:49Z</time>
      </trkpt>
      <trkpt lat="44.89214" lon="4.69398">
        <ele>637.49</ele>
        <time>2021-03-14T08:42:03Z</time>
      </trkpt>
      <trkpt lat="44.89218" lon="4.69417">
        <ele>637.49</ele>
        <time>2021-03-14T08:42:12Z</time>
      </trkpt>
      <trkpt lat="44.89221" lon="4.69438">
        <ele>638.93</ele>
        <time>2021-03-14T08:42:23Z</time>
      </trkpt>
      <trkpt lat="44.89236" lon="4.69444">
        <ele>638.93</ele>
        <time>2021-03-14T08:42:36Z</time>
      </trkpt>
      <trkpt lat="44.89251" lon="4.69451">
        <ele>638.93</ele>
        <time>2021-03-14T08:42:48Z</time>
      </trkpt>
      <trkpt lat="44.89263" lon="4.69461">
        <ele>639.89</ele>
        <time>2021-03-14T08:42:57Z</time>
      </trkpt>
      <trkpt lat="44.89276" lon="4.69471">
        <ele>639.89</ele>
        <time>2021-03-14T08:43:11Z</time>
      </trkpt>
      <trkpt lat="44.89278" lon="4.69471">
        <ele>640.38</ele>
        <time>2021-03-14T08:43:12Z</time>
      </trkpt>
      <trkpt lat="44.89298" lon="4.69465">
        <ele>641.34</ele>
        <time>2021-03-14T08:43:26Z</time>
      </trkpt>
      <trkpt lat="44.89308" lon="4.69466">
        <ele>642.3</ele>
        <time>2021-03-14T08:43:35Z</time>
      </trkpt>
      <trkpt lat="44.8932" lon="4.69471">
        <ele>642.78</ele>
        <time>2021-03-14T08:43:45Z</time>
      </trkpt>
      <trkpt lat="44.89325" lon="4.69475">
        <ele>642.78</ele>
        <time>2021-03-14T08:43:49Z</time>
      </trkpt>
      <trkpt lat="44.89329" lon="4.69477">
        <ele>643.26</ele>
        <time>2021-03-14T08:43:52Z</time>
      </trkpt>
      <trkpt lat="44.89344" lon="4.69474">
        <ele>643.26</ele>
        <time>2021-03-14T08:44:06Z</time>
      </trkpt>
      <trkpt lat="44.89346" lon="4.69472">
        <ele>643.26</ele>
        <time>2021-03-14T08:44:08Z</time>
      </trkpt>
      <trkpt lat="44.89362" lon="4.69453">
        <ele>643.26</ele>
        <time>2021-03-14T08:44:22Z</time>
      </trkpt>
      <trkpt lat="44.89367" lon="4.69428">
        <ele>643.74</ele>
        <time>2021-03-14T08:44:34Z</time>
      </trkpt>
      <trkpt lat="44.89376" lon="4.69404">
        <ele>643.26</ele>
        <time>2021-03-14T08:44:47Z</time>
      </trkpt>
      <trkpt lat="44.89382" lon="4.69387">
        <ele>642.78</ele>
        <time>2021-03-14T08:44:58Z</time>
      </trkpt>
      <trkpt lat="44.89391" lon="4.69372">
        <ele>643.74</ele>
        <time>2021-03-14T08:45:12Z</time>
      </trkpt>
      <trkpt lat="44.89399" lon="4.69362">
        <ele>643.26</ele>
        <time>2021-03-14T08:45:23Z</time>
      </trkpt>
      <trkpt lat="44.89414" lon="4.6936">
        <ele>644.22</ele>
        <time>2021-03-14T08:45:37Z</time>
      </trkpt>
      <trkpt lat="44.89421" lon="4.69361">
        <ele>644.22</ele>
        <time>2021-03-14T08:45:43Z</time>
      </trkpt>
      <trkpt lat="44.89433" lon="4.69366">
        <ele>644.7</ele>
        <time>2021-03-14T08:45:51Z</time>
      </trkpt>
      <trkpt lat="44.89444" lon="4.6938">
        <ele>645.18</ele>
        <time>2021-03-14T08:46:04Z</time>
      </trkpt>
      <trkpt lat="44.89447" lon="4.69393">
        <ele>644.7</ele>
        <time>2021-03-14T08:46:12Z</time>
      </trkpt>
      <trkpt lat="44.89449" lon="4.69403">
        <ele>644.22</ele>
        <time>2021-03-14T08:46:20Z</time>
      </trkpt>
      <trkpt lat="44.89459" lon="4.69429">
        <ele>644.22</ele>
        <time>2021-03-14T08:46:34Z</time>
      </trkpt>
      <trkpt lat="44.8946" lon="4.69431">
        <ele>644.22</ele>
        <time>2021-03-14T08:46:36Z</time>
      </trkpt>
      <trkpt lat="44.89462" lon="4.69434">
        <ele>644.7</ele>
        <time>2021-03-14T08:46:38Z</time>
      </trkpt>
      <trkpt lat="44.89467" lon="4.69443">
        <ele>644.22</ele>
        <time>2021-03-14T08:46:43Z</time>
      </trkpt>
      <trkpt lat="44.89472" lon="4.69455">
        <ele>644.22</ele>
        <time>2021-03-14T08:46:55Z</time>
      </trkpt>
      <trkpt lat="44.89473" lon="4.69459">
        <ele>644.22</ele>
        <time>2021-03-14T08:46:58Z</time>
      </trkpt>
      <trkpt lat="44.89485" lon="4.69468">
        <ele>643.74</ele>
        <time>2021-03-14T08:47:13Z</time>
      </trkpt>
      <trkpt lat="44.89501" lon="4.69444">
        <ele>644.22</ele>
        <time>2021-03-14T08:47:32Z</time>
      </trkpt>
      <trkpt lat="44.89502" lon="4.69442">
        <ele>643.74</ele>
        <time>2021-03-14T08:47:33Z</time>
      </trkpt>
      <trkpt lat="44.89508" lon="4.69433">
        <ele>643.74</ele>
        <time>2021-03-14T08:47:38Z</time>
      </trkpt>
      <trkpt lat="44.89513" lon="4.69429">
        <ele>643.74</ele>
        <time>2021-03-14T08:47:43Z</time>
      </trkpt>
      <trkpt lat="44.89518" lon="4.69424">
        <ele>643.74</ele>
        <time>2021-03-14T08:47:48Z</time>
      </trkpt>
      <trkpt lat="44.8953" lon="4.69416">
        <ele>642.78</ele>
        <time>2021-03-14T08:48:03Z</time>
      </trkpt>
      <trkpt lat="44.8954" lon="4.69413">
        <ele>642.78</ele>
        <time>2021-03-14T08:48:13Z</time>
      </trkpt>
      <trkpt lat="44.89549" lon="4.69415">
        <ele>642.78</ele>
        <time>2021-03-14T08:48:21Z</time>
      </trkpt>
      <trkpt lat="44.89565" lon="4.6942">
        <ele>643.26</ele>
        <time>2021-03-14T08:48:35Z</time>
      </trkpt>
      <trkpt lat="44.89583" lon="4.69426">
        <ele>642.78</ele>
        <time>2021-03-14T08:48:48Z</time>
      </trkpt>
      <trkpt lat="44.89607" lon="4.69428">
        <ele>642.78</ele>
        <time>2021-03-14T08:49:01Z</time>
      </trkpt>
      <trkpt lat="44.89626" lon="4.69426">
        <ele>643.26</ele>
        <time>2021-03-14T08:49:14Z</time>
      </trkpt>
      <trkpt lat="44.89631" lon="4.69425">
        <ele>642.78</ele>
        <time>2021-03-14T08:49:19Z</time>
      </trkpt>
      <trkpt lat="44.89639" lon="4.69415">
        <ele>642.3</ele>
        <time>2021-03-14T08:49:26Z</time>
      </trkpt>
      <trkpt lat="44.89641" lon="4.69397">
        <ele>642.3</ele>
        <time>2021-03-14T08:49:38Z</time>
      </trkpt>
      <trkpt lat="44.89641" lon="4.69395">
        <ele>642.3</ele>
        <time>2021-03-14T08:49:39Z</time>
      </trkpt>
      <trkpt lat="44.89636" lon="4.69382">
        <ele>641.82</ele>
        <time>2021-03-14T08:49:48Z</time>
      </trkpt>
      <trkpt lat="44.89635" lon="4.69378">
        <ele>641.82</ele>
        <time>2021-03-14T08:49:51Z</time>
      </trkpt>
      <trkpt lat="44.89628" lon="4.69359">
        <ele>640.86</ele>
        <time>2021-03-14T08:50:03Z</time>
      </trkpt>
      <trkpt lat="44.89616" lon="4.69336">
        <ele>640.38</ele>
        <time>2021-03-14T08:50:17Z</time>
      </trkpt>
      <trkpt lat="44.89605" lon="4.69312">
        <ele>638.93</ele>
        <time>2021-03-14T08:50:32Z</time>
      </trkpt>
      <trkpt lat="44.89597" lon="4.69292">
        <ele>638.45</ele>
        <time>2021-03-14T08:50:46Z</time>
      </trkpt>
      <trkpt lat="44.89589" lon="4.69277">
        <ele>637.49</ele>
        <time>2021-03-14T08:50:54Z</time>
      </trkpt>
      <trkpt lat="44.89579" lon="4.69254">
        <ele>636.53</ele>
        <time>2021-03-14T08:51:06Z</time>
      </trkpt>
      <trkpt lat="44.89579" lon="4.69248">
        <ele>636.53</ele>
        <time>2021-03-14T08:51:11Z</time>
      </trkpt>
      <trkpt lat="44.89578" lon="4.69236">
        <ele>636.53</ele>
        <time>2021-03-14T08:51:17Z</time>
      </trkpt>
      <trkpt lat="44.89578" lon="4.69218">
        <ele>635.57</ele>
        <time>2021-03-14T08:51:27Z</time>
      </trkpt>
      <trkpt lat="44.89581" lon="4.69213">
        <ele>635.57</ele>
        <time>2021-03-14T08:51:34Z</time>
      </trkpt>
      <trkpt lat="44.89586" lon="4.69215">
        <ele>636.53</ele>
        <time>2021-03-14T08:51:39Z</time>
      </trkpt>
      <trkpt lat="44.89591" lon="4.6922">
        <ele>637.49</ele>
        <time>2021-03-14T08:51:44Z</time>
      </trkpt>
      <trkpt lat="44.89593" lon="4.69224">
        <ele>637.97</ele>
        <time>2021-03-14T08:51:46Z</time>
      </trkpt>
      <trkpt lat="44.89599" lon="4.69236">
        <ele>639.89</ele>
        <time>2021-03-14T08:51:58Z</time>
      </trkpt>
      <trkpt lat="44.89603" lon="4.69241">
        <ele>640.38</ele>
        <time>2021-03-14T08:52:02Z</time>
      </trkpt>
      <trkpt lat="44.89606" lon="4.69244">
        <ele>640.86</ele>
        <time>2021-03-14T08:52:16Z</time>
      </trkpt>
      <trkpt lat="44.89606" lon="4.69244">
        <ele>640.38</ele>
        <time>2021-03-14T08:52:53Z</time>
      </trkpt>
      <trkpt lat="44.89606" lon="4.69244">
        <ele>641.34</ele>
        <time>2021-03-14T08:53:19Z</time>
      </trkpt>
      <trkpt lat="44.89611" lon="4.69251">
        <ele>641.34</ele>
        <time>2021-03-14T08:53:37Z</time>
      </trkpt>
      <trkpt lat="44.89621" lon="4.69259">
        <ele>643.74</ele>
        <time>2021-03-14T08:53:51Z</time>
      </trkpt>
      <trkpt lat="44.89623" lon="4.69262">
        <ele>644.22</ele>
        <time>2021-03-14T08:53:55Z</time>
      </trkpt>
      <trkpt lat="44.89631" lon="4.69271">
        <ele>647.59</ele>
        <time>2021-03-14T08:54:06Z</time>
      </trkpt>
      <trkpt lat="44.89634" lon="4.69275">
        <ele>647.59</ele>
        <time>2021-03-14T08:54:24Z</time>
      </trkpt>
      <trkpt lat="44.8964" lon="4.6928">
        <ele>649.03</ele>
        <time>2021-03-14T08:54:39Z</time>
      </trkpt>
      <trkpt lat="44.89646" lon="4.69285">
        <ele>650.47</ele>
        <time>2021-03-14T08:54:53Z</time>
      </trkpt>
      <trkpt lat="44.89646" lon="4.69285">
        <ele>649.99</ele>
        <time>2021-03-14T08:54:57Z</time>
      </trkpt>
      <trkpt lat="44.89652" lon="4.69289">
        <ele>651.43</ele>
        <time>2021-03-14T08:55:02Z</time>
      </trkpt>
      <trkpt lat="44.89655" lon="4.69293">
        <ele>651.91</ele>
        <time>2021-03-14T08:55:06Z</time>
      </trkpt>
      <trkpt lat="44.89658" lon="4.69297">
        <ele>652.87</ele>
        <time>2021-03-14T08:55:09Z</time>
      </trkpt>
      <trkpt lat="44.89662" lon="4.693">
        <ele>653.83</ele>
        <time>2021-03-14T08:55:14Z</time>
      </trkpt>
      <trkpt lat="44.89664" lon="4.69303">
        <ele>654.31</ele>
        <time>2021-03-14T08:55:17Z</time>
      </trkpt>
      <trkpt lat="44.89667" lon="4.69306">
        <ele>655.28</ele>
        <time>2021-03-14T08:55:21Z</time>
      </trkpt>
      <trkpt lat="44.89671" lon="4.69308">
        <ele>656.72</ele>
        <time>2021-03-14T08:55:25Z</time>
      </trkpt>
      <trkpt lat="44.89679" lon="4.69317">
        <ele>658.64</ele>
        <time>2021-03-14T08:55:40Z</time>
      </trkpt>
      <trkpt lat="44.89677" lon="4.69317">
        <ele>658.16</ele>
        <time>2021-03-14T08:55:52Z</time>
      </trkpt>
      <trkpt lat="44.89681" lon="4.69323">
        <ele>659.6</ele>
        <time>2021-03-14T08:55:57Z</time>
      </trkpt>
      <trkpt lat="44.89684" lon="4.69326">
        <ele>660.08</ele>
        <time>2021-03-14T08:56:01Z</time>
      </trkpt>
      <trkpt lat="44.89696" lon="4.6934">
        <ele>662.97</ele>
        <time>2021-03-14T08:56:13Z</time>
      </trkpt>
      <trkpt lat="44.89697" lon="4.6934">
        <ele>663.45</ele>
        <time>2021-03-14T08:56:15Z</time>
      </trkpt>
      <trkpt lat="44.89701" lon="4.69345">
        <ele>663.93</ele>
        <time>2021-03-14T08:56:19Z</time>
      </trkpt>
      <trkpt lat="44.89706" lon="4.69352">
        <ele>664.41</ele>
        <time>2021-03-14T08:56:26Z</time>
      </trkpt>
      <trkpt lat="44.8971" lon="4.69359">
        <ele>665.37</ele>
        <time>2021-03-14T08:56:31Z</time>
      </trkpt>
      <trkpt lat="44.89715" lon="4.69365">
        <ele>666.81</ele>
        <time>2021-03-14T08:56:37Z</time>
      </trkpt>
      <trkpt lat="44.89718" lon="4.69368">
        <ele>667.77</ele>
        <time>2021-03-14T08:56:40Z</time>
      </trkpt>
      <trkpt lat="44.89725" lon="4.69372">
        <ele>669.7</ele>
        <time>2021-03-14T08:56:46Z</time>
      </trkpt>
      <trkpt lat="44.8973" lon="4.69377">
        <ele>670.18</ele>
        <time>2021-03-14T08:56:52Z</time>
      </trkpt>
      <trkpt lat="44.89734" lon="4.69381">
        <ele>670.66</ele>
        <time>2021-03-14T08:56:58Z</time>
      </trkpt>
      <trkpt lat="44.89737" lon="4.69386">
        <ele>671.62</ele>
        <time>2021-03-14T08:57:03Z</time>
      </trkpt>
      <trkpt lat="44.89738" lon="4.6939">
        <ele>672.58</ele>
        <time>2021-03-14T08:57:19Z</time>
      </trkpt>
      <trkpt lat="44.89739" lon="4.69392">
        <ele>672.58</ele>
        <time>2021-03-14T08:57:26Z</time>
      </trkpt>
      <trkpt lat="44.89746" lon="4.69407">
        <ele>673.54</ele>
        <time>2021-03-14T08:57:37Z</time>
      </trkpt>
      <trkpt lat="44.89746" lon="4.69408">
        <ele>673.06</ele>
        <time>2021-03-14T08:57:52Z</time>
      </trkpt>
      <trkpt lat="44.89746" lon="4.69411">
        <ele>672.58</ele>
        <time>2021-03-14T08:58:05Z</time>
      </trkpt>
      <trkpt lat="44.89749" lon="4.69421">
        <ele>673.06</ele>
        <time>2021-03-14T08:58:17Z</time>
      </trkpt>
      <trkpt lat="44.89749" lon="4.69421">
        <ele>673.06</ele>
        <time>2021-03-14T08:58:52Z</time>
      </trkpt>
      <trkpt lat="44.89749" lon="4.69421">
        <ele>673.54</ele>
        <time>2021-03-14T08:59:22Z</time>
      </trkpt>
      <trkpt lat="44.89749" lon="4.69421">
        <ele>673.54</ele>
        <time>2021-03-14T08:59:53Z</time>
      </trkpt>
      <trkpt lat="44.89749" lon="4.69421">
        <ele>673.54</ele>
        <time>2021-03-14T09:00:33Z</time>
      </trkpt>
      <trkpt lat="44.89749" lon="4.6942">
        <ele>673.54</ele>
        <time>2021-03-14T09:01:01Z</time>
      </trkpt>
      <trkpt lat="44.89749" lon="4.6942">
        <ele>673.54</ele>
        <time>2021-03-14T09:01:38Z</time>
      </trkpt>
      <trkpt lat="44.89749" lon="4.6942">
        <ele>673.54</ele>
        <time>2021-03-14T09:02:11Z</time>
      </trkpt>
      <trkpt lat="44.89749" lon="4.69415">
        <ele>673.06</ele>
        <time>2021-03-14T09:02:24Z</time>
      </trkpt>
      <trkpt lat="44.89749" lon="4.69415">
        <ele>673.54</ele>
        <time>2021-03-14T09:02:53Z</time>
      </trkpt>
      <trkpt lat="44.89749" lon="4.69415">
        <ele>673.54</ele>
        <time>2021-03-14T09:03:27Z</time>
      </trkpt>
      <trkpt lat="44.89749" lon="4.69415">
        <ele>673.54</ele>
        <time>2021-03-14T09:03:51Z</time>
      </trkpt>
      <trkpt lat="44.89747" lon="4.69406">
        <ele>674.02</ele>
        <time>2021-03-14T09:04:02Z</time>
      </trkpt>
      <trkpt lat="44.89748" lon="4.69402">
        <ele>674.5</ele>
        <time>2021-03-14T09:04:15Z</time>
      </trkpt>
      <trkpt lat="44.89748" lon="4.69402">
        <ele>674.02</ele>
        <time>2021-03-14T09:04:47Z</time>
      </trkpt>
      <trkpt lat="44.89748" lon="4.69402">
        <ele>674.02</ele>
        <time>2021-03-14T09:04:49Z</time>
      </trkpt>
      <trkpt lat="44.89743" lon="4.69401">
        <ele>673.54</ele>
        <time>2021-03-14T09:05:01Z</time>
      </trkpt>
      <trkpt lat="44.89743" lon="4.69401">
        <ele>673.54</ele>
        <time>2021-03-14T09:05:28Z</time>
      </trkpt>
      <trkpt lat="44.89743" lon="4.69401">
        <ele>674.02</ele>
        <time>2021-03-14T09:05:57Z</time>
      </trkpt>
      <trkpt lat="44.89745" lon="4.69403">
        <ele>674.5</ele>
        <time>2021-03-14T09:06:13Z</time>
      </trkpt>
      <trkpt lat="44.89745" lon="4.69403">
        <ele>674.02</ele>
        <time>2021-03-14T09:06:34Z</time>
      </trkpt>
      <trkpt lat="44.89745" lon="4.69403">
        <ele>674.02</ele>
        <time>2021-03-14T09:07:06Z</time>
      </trkpt>
      <trkpt lat="44.89745" lon="4.69404">
        <ele>674.5</ele>
        <time>2021-03-14T09:07:28Z</time>
      </trkpt>
      <trkpt lat="44.89745" lon="4.69404">
        <ele>674.5</ele>
        <time>2021-03-14T09:07:56Z</time>
      </trkpt>
      <trkpt lat="44.89745" lon="4.69404">
        <ele>675.46</ele>
        <time>2021-03-14T09:08:25Z</time>
      </trkpt>
      <trkpt lat="44.89747" lon="4.69402">
        <ele>674.98</ele>
        <time>2021-03-14T09:08:38Z</time>
      </trkpt>
      <trkpt lat="44.8975" lon="4.69401">
        <ele>675.94</ele>
        <time>2021-03-14T09:08:54Z</time>
      </trkpt>
      <trkpt lat="44.89748" lon="4.69418">
        <ele>675.94</ele>
        <time>2021-03-14T09:09:17Z</time>
      </trkpt>
      <trkpt lat="44.89762" lon="4.69407">
        <ele>677.39</ele>
        <time>2021-03-14T09:16:22Z</time>
      </trkpt>
      <trkpt lat="44.89753" lon="4.69401">
        <ele>677.87</ele>
        <time>2021-03-14T09:16:47Z</time>
      </trkpt>
      <trkpt lat="44.89755" lon="4.69398">
        <ele>677.39</ele>
        <time>2021-03-14T09:17:13Z</time>
      </trkpt>
      <trkpt lat="44.8975" lon="4.69391">
        <ele>675.46</ele>
        <time>2021-03-14T09:17:34Z</time>
      </trkpt>
      <trkpt lat="44.89754" lon="4.694">
        <ele>674.5</ele>
        <time>2021-03-14T09:20:09Z</time>
      </trkpt>
      <trkpt lat="44.89746" lon="4.69404">
        <ele>674.02</ele>
        <time>2021-03-14T09:20:22Z</time>
      </trkpt>
      <trkpt lat="44.89744" lon="4.69404">
        <ele>674.02</ele>
        <time>2021-03-14T09:20:34Z</time>
      </trkpt>
      <trkpt lat="44.89746" lon="4.69402">
        <ele>674.02</ele>
        <time>2021-03-14T09:21:01Z</time>
      </trkpt>
      <trkpt lat="44.89747" lon="4.69403">
        <ele>674.5</ele>
        <time>2021-03-14T09:21:20Z</time>
      </trkpt>
      <trkpt lat="44.89747" lon="4.69403">
        <ele>674.98</ele>
        <time>2021-03-14T09:21:41Z</time>
      </trkpt>
      <trkpt lat="44.89748" lon="4.69402">
        <ele>674.5</ele>
        <time>2021-03-14T09:21:45Z</time>
      </trkpt>
      <trkpt lat="44.89749" lon="4.69395">
        <ele>675.46</ele>
        <time>2021-03-14T09:21:57Z</time>
      </trkpt>
      <trkpt lat="44.89749" lon="4.69395">
        <ele>675.46</ele>
        <time>2021-03-14T09:22:24Z</time>
      </trkpt>
      <trkpt lat="44.8975" lon="4.69395">
        <ele>675.94</ele>
        <time>2021-03-14T09:22:46Z</time>
      </trkpt>
      <trkpt lat="44.8975" lon="4.69395">
        <ele>675.94</ele>
        <time>2021-03-14T09:23:15Z</time>
      </trkpt>
      <trkpt lat="44.8975" lon="4.69395">
        <ele>675.46</ele>
        <time>2021-03-14T09:23:38Z</time>
      </trkpt>
      <trkpt lat="44.8975" lon="4.69395">
        <ele>674.98</ele>
        <time>2021-03-14T09:24:01Z</time>
      </trkpt>
      <trkpt lat="44.8975" lon="4.69395">
        <ele>675.94</ele>
        <time>2021-03-14T09:24:33Z</time>
      </trkpt>
      <trkpt lat="44.89749" lon="4.69394">
        <ele>676.42</ele>
        <time>2021-03-14T09:25:00Z</time>
      </trkpt>
      <trkpt lat="44.89749" lon="4.69394">
        <ele>676.42</ele>
        <time>2021-03-14T09:25:31Z</time>
      </trkpt>
      <trkpt lat="44.89749" lon="4.69394">
        <ele>676.42</ele>
        <time>2021-03-14T09:26:01Z</time>
      </trkpt>
      <trkpt lat="44.89747" lon="4.69403">
        <ele>676.42</ele>
        <time>2021-03-14T09:26:14Z</time>
      </trkpt>
      <trkpt lat="44.89743" lon="4.69405">
        <ele>676.42</ele>
        <time>2021-03-14T09:26:26Z</time>
      </trkpt>
      <trkpt lat="44.89745" lon="4.69408">
        <ele>675.94</ele>
        <time>2021-03-14T09:26:42Z</time>
      </trkpt>
      <trkpt lat="44.89746" lon="4.69413">
        <ele>674.98</ele>
        <time>2021-03-14T09:26:55Z</time>
      </trkpt>
      <trkpt lat="44.89746" lon="4.69413">
        <ele>676.91</ele>
        <time>2021-03-14T09:26:58Z</time>
      </trkpt>
      <trkpt lat="44.89747" lon="4.6942">
        <ele>676.42</ele>
        <time>2021-03-14T09:27:11Z</time>
      </trkpt>
      <trkpt lat="44.89747" lon="4.69423">
        <ele>676.91</ele>
        <time>2021-03-14T09:27:25Z</time>
      </trkpt>
      <trkpt lat="44.8975" lon="4.6943">
        <ele>676.91</ele>
        <time>2021-03-14T09:27:35Z</time>
      </trkpt>
      <trkpt lat="44.89751" lon="4.6943">
        <ele>676.91</ele>
        <time>2021-03-14T09:27:48Z</time>
      </trkpt>
      <trkpt lat="44.89752" lon="4.69431">
        <ele>676.91</ele>
        <time>2021-03-14T09:28:05Z</time>
      </trkpt>
      <trkpt lat="44.89752" lon="4.69431">
        <ele>676.91</ele>
        <time>2021-03-14T09:28:30Z</time>
      </trkpt>
      <trkpt lat="44.89753" lon="4.69431">
        <ele>677.39</ele>
        <time>2021-03-14T09:28:52Z</time>
      </trkpt>
      <trkpt lat="44.89753" lon="4.69431">
        <ele>677.39</ele>
        <time>2021-03-14T09:29:13Z</time>
      </trkpt>
      <trkpt lat="44.89753" lon="4.69434">
        <ele>677.39</ele>
        <time>2021-03-14T09:29:34Z</time>
      </trkpt>
      <trkpt lat="44.89753" lon="4.69434">
        <ele>677.39</ele>
        <time>2021-03-14T09:29:55Z</time>
      </trkpt>
      <trkpt lat="44.89753" lon="4.69433">
        <ele>677.39</ele>
        <time>2021-03-14T09:30:17Z</time>
      </trkpt>
      <trkpt lat="44.89755" lon="4.69438">
        <ele>677.39</ele>
        <time>2021-03-14T09:30:30Z</time>
      </trkpt>
      <trkpt lat="44.89755" lon="4.69438">
        <ele>678.83</ele>
        <time>2021-03-14T09:30:57Z</time>
      </trkpt>
      <trkpt lat="44.89755" lon="4.69438">
        <ele>678.35</ele>
        <time>2021-03-14T09:31:32Z</time>
      </trkpt>
      <trkpt lat="44.89755" lon="4.69438">
        <ele>678.35</ele>
        <time>2021-03-14T09:32:05Z</time>
      </trkpt>
      <trkpt lat="44.89755" lon="4.69438">
        <ele>678.83</ele>
        <time>2021-03-14T09:32:36Z</time>
      </trkpt>
      <trkpt lat="44.89755" lon="4.69438">
        <ele>679.31</ele>
        <time>2021-03-14T09:33:06Z</time>
      </trkpt>
      <trkpt lat="44.89756" lon="4.69439">
        <ele>679.31</ele>
        <time>2021-03-14T09:33:26Z</time>
      </trkpt>
      <trkpt lat="44.89757" lon="4.6944">
        <ele>679.79</ele>
        <time>2021-03-14T09:33:45Z</time>
      </trkpt>
      <trkpt lat="44.89759" lon="4.69439">
        <ele>681.71</ele>
        <time>2021-03-14T09:33:54Z</time>
      </trkpt>
      <trkpt lat="44.8976" lon="4.69436">
        <ele>681.71</ele>
        <time>2021-03-14T09:33:57Z</time>
      </trkpt>
      <trkpt lat="44.89761" lon="4.69421">
        <ele>683.15</ele>
        <time>2021-03-14T09:34:10Z</time>
      </trkpt>
      <trkpt lat="44.89764" lon="4.69412">
        <ele>684.12</ele>
        <time>2021-03-14T09:34:16Z</time>
      </trkpt>
      <trkpt lat="44.89765" lon="4.69401">
        <ele>684.6</ele>
        <time>2021-03-14T09:34:23Z</time>
      </trkpt>
      <trkpt lat="44.89766" lon="4.69393">
        <ele>685.08</ele>
        <time>2021-03-14T09:34:28Z</time>
      </trkpt>
      <trkpt lat="44.89768" lon="4.69372">
        <ele>687.96</ele>
        <time>2021-03-14T09:34:42Z</time>
      </trkpt>
      <trkpt lat="44.89768" lon="4.69359">
        <ele>689.4</ele>
        <time>2021-03-14T09:34:51Z</time>
      </trkpt>
      <trkpt lat="44.89767" lon="4.69337">
        <ele>692.29</ele>
        <time>2021-03-14T09:35:05Z</time>
      </trkpt>
      <trkpt lat="44.89766" lon="4.69323">
        <ele>693.73</ele>
        <time>2021-03-14T09:35:19Z</time>
      </trkpt>
      <trkpt lat="44.89766" lon="4.69323">
        <ele>693.73</ele>
        <time>2021-03-14T09:35:32Z</time>
      </trkpt>
      <trkpt lat="44.89763" lon="4.69311">
        <ele>694.69</ele>
        <time>2021-03-14T09:35:39Z</time>
      </trkpt>
      <trkpt lat="44.89761" lon="4.69297">
        <ele>697.09</ele>
        <time>2021-03-14T09:35:47Z</time>
      </trkpt>
      <trkpt lat="44.89766" lon="4.693">
        <ele>698.53</ele>
        <time>2021-03-14T09:35:53Z</time>
      </trkpt>
      <trkpt lat="44.8977" lon="4.69309">
        <ele>699.02</ele>
        <time>2021-03-14T09:36:01Z</time>
      </trkpt>
      <trkpt lat="44.89775" lon="4.69319">
        <ele>700.46</ele>
        <time>2021-03-14T09:36:08Z</time>
      </trkpt>
      <trkpt lat="44.89782" lon="4.69331">
        <ele>701.9</ele>
        <time>2021-03-14T09:36:20Z</time>
      </trkpt>
      <trkpt lat="44.89785" lon="4.69335">
        <ele>702.86</ele>
        <time>2021-03-14T09:36:25Z</time>
      </trkpt>
      <trkpt lat="44.89789" lon="4.69341">
        <ele>703.82</ele>
        <time>2021-03-14T09:36:29Z</time>
      </trkpt>
      <trkpt lat="44.89794" lon="4.69347">
        <ele>704.3</ele>
        <time>2021-03-14T09:36:35Z</time>
      </trkpt>
      <trkpt lat="44.89801" lon="4.69353">
        <ele>705.26</ele>
        <time>2021-03-14T09:36:43Z</time>
      </trkpt>
      <trkpt lat="44.89809" lon="4.69373">
        <ele>706.71</ele>
        <time>2021-03-14T09:36:55Z</time>
      </trkpt>
      <trkpt lat="44.8981" lon="4.69385">
        <ele>708.15</ele>
        <time>2021-03-14T09:37:01Z</time>
      </trkpt>
      <trkpt lat="44.89814" lon="4.69399">
        <ele>708.63</ele>
        <time>2021-03-14T09:37:10Z</time>
      </trkpt>
      <trkpt lat="44.89817" lon="4.6941">
        <ele>708.63</ele>
        <time>2021-03-14T09:37:16Z</time>
      </trkpt>
      <trkpt lat="44.89818" lon="4.69411">
        <ele>709.11</ele>
        <time>2021-03-14T09:37:18Z</time>
      </trkpt>
      <trkpt lat="44.89821" lon="4.69421">
        <ele>709.59</ele>
        <time>2021-03-14T09:37:23Z</time>
      </trkpt>
      <trkpt lat="44.89828" lon="4.69438">
        <ele>711.51</ele>
        <time>2021-03-14T09:37:36Z</time>
      </trkpt>
      <trkpt lat="44.89828" lon="4.69438">
        <ele>711.03</ele>
        <time>2021-03-14T09:38:01Z</time>
      </trkpt>
      <trkpt lat="44.89828" lon="4.69439">
        <ele>711.03</ele>
        <time>2021-03-14T09:38:32Z</time>
      </trkpt>
      <trkpt lat="44.89828" lon="4.69439">
        <ele>710.55</ele>
        <time>2021-03-14T09:39:02Z</time>
      </trkpt>
      <trkpt lat="44.89829" lon="4.69442">
        <ele>711.51</ele>
        <time>2021-03-14T09:39:06Z</time>
      </trkpt>
      <trkpt lat="44.89829" lon="4.69448">
        <ele>711.99</ele>
        <time>2021-03-14T09:39:09Z</time>
      </trkpt>
      <trkpt lat="44.8983" lon="4.69459">
        <ele>712.95</ele>
        <time>2021-03-14T09:39:15Z</time>
      </trkpt>
      <trkpt lat="44.89831" lon="4.69471">
        <ele>715.36</ele>
        <time>2021-03-14T09:39:23Z</time>
      </trkpt>
      <trkpt lat="44.89832" lon="4.69477">
        <ele>715.36</ele>
        <time>2021-03-14T09:39:27Z</time>
      </trkpt>
      <trkpt lat="44.89833" lon="4.6949">
        <ele>716.8</ele>
        <time>2021-03-14T09:39:35Z</time>
      </trkpt>
      <trkpt lat="44.89835" lon="4.69493">
        <ele>718.24</ele>
        <time>2021-03-14T09:39:39Z</time>
      </trkpt>
      <trkpt lat="44.8984" lon="4.69491">
        <ele>719.2</ele>
        <time>2021-03-14T09:39:43Z</time>
      </trkpt>
      <trkpt lat="44.89843" lon="4.69489">
        <ele>720.16</ele>
        <time>2021-03-14T09:39:46Z</time>
      </trkpt>
      <trkpt lat="44.89847" lon="4.69481">
        <ele>720.65</ele>
        <time>2021-03-14T09:39:52Z</time>
      </trkpt>
      <trkpt lat="44.8985" lon="4.69476">
        <ele>722.09</ele>
        <time>2021-03-14T09:39:56Z</time>
      </trkpt>
      <trkpt lat="44.89857" lon="4.6947">
        <ele>724.49</ele>
        <time>2021-03-14T09:40:08Z</time>
      </trkpt>
      <trkpt lat="44.89858" lon="4.69464">
        <ele>724.01</ele>
        <time>2021-03-14T09:40:20Z</time>
      </trkpt>
      <trkpt lat="44.89862" lon="4.69458">
        <ele>725.45</ele>
        <time>2021-03-14T09:40:26Z</time>
      </trkpt>
      <trkpt lat="44.89865" lon="4.69447">
        <ele>726.89</ele>
        <time>2021-03-14T09:40:38Z</time>
      </trkpt>
      <trkpt lat="44.89865" lon="4.69447">
        <ele>726.41</ele>
        <time>2021-03-14T09:40:58Z</time>
      </trkpt>
      <trkpt lat="44.89865" lon="4.69447">
        <ele>726.89</ele>
        <time>2021-03-14T09:41:00Z</time>
      </trkpt>
      <trkpt lat="44.89872" lon="4.69452">
        <ele>729.78</ele>
        <time>2021-03-14T09:41:12Z</time>
      </trkpt>
      <trkpt lat="44.89872" lon="4.69453">
        <ele>729.78</ele>
        <time>2021-03-14T09:41:13Z</time>
      </trkpt>
      <trkpt lat="44.89872" lon="4.69459">
        <ele>729.78</ele>
        <time>2021-03-14T09:41:18Z</time>
      </trkpt>
      <trkpt lat="44.89874" lon="4.69481">
        <ele>728.82</ele>
        <time>2021-03-14T09:41:28Z</time>
      </trkpt>
      <trkpt lat="44.89875" lon="4.69499">
        <ele>729.3</ele>
        <time>2021-03-14T09:41:39Z</time>
      </trkpt>
      <trkpt lat="44.89875" lon="4.69507">
        <ele>728.82</ele>
        <time>2021-03-14T09:41:43Z</time>
      </trkpt>
      <trkpt lat="44.89875" lon="4.69535">
        <ele>729.78</ele>
        <time>2021-03-14T09:41:54Z</time>
      </trkpt>
      <trkpt lat="44.89875" lon="4.69537">
        <ele>729.78</ele>
        <time>2021-03-14T09:41:55Z</time>
      </trkpt>
      <trkpt lat="44.89872" lon="4.69548">
        <ele>730.26</ele>
        <time>2021-03-14T09:42:03Z</time>
      </trkpt>
      <trkpt lat="44.89872" lon="4.69551">
        <ele>730.26</ele>
        <time>2021-03-14T09:42:05Z</time>
      </trkpt>
      <trkpt lat="44.89865" lon="4.69568">
        <ele>731.22</ele>
        <time>2021-03-14T09:42:17Z</time>
      </trkpt>
      <trkpt lat="44.89865" lon="4.69568">
        <ele>729.78</ele>
        <time>2021-03-14T09:42:37Z</time>
      </trkpt>
      <trkpt lat="44.89865" lon="4.69568">
        <ele>729.78</ele>
        <time>2021-03-14T09:43:08Z</time>
      </trkpt>
      <trkpt lat="44.89865" lon="4.69568">
        <ele>729.78</ele>
        <time>2021-03-14T09:43:20Z</time>
      </trkpt>
      <trkpt lat="44.89865" lon="4.69576">
        <ele>729.3</ele>
        <time>2021-03-14T09:43:26Z</time>
      </trkpt>
      <trkpt lat="44.8986" lon="4.6959">
        <ele>728.82</ele>
        <time>2021-03-14T09:43:33Z</time>
      </trkpt>
      <trkpt lat="44.8986" lon="4.69596">
        <ele>728.34</ele>
        <time>2021-03-14T09:43:36Z</time>
      </trkpt>
      <trkpt lat="44.89857" lon="4.69602">
        <ele>728.34</ele>
        <time>2021-03-14T09:43:41Z</time>
      </trkpt>
      <trkpt lat="44.89845" lon="4.69619">
        <ele>729.3</ele>
        <time>2021-03-14T09:43:53Z</time>
      </trkpt>
      <trkpt lat="44.89843" lon="4.69623">
        <ele>729.3</ele>
        <time>2021-03-14T09:43:57Z</time>
      </trkpt>
      <trkpt lat="44.89831" lon="4.69641">
        <ele>731.7</ele>
        <time>2021-03-14T09:44:10Z</time>
      </trkpt>
      <trkpt lat="44.89819" lon="4.69657">
        <ele>731.22</ele>
        <time>2021-03-14T09:44:21Z</time>
      </trkpt>
      <trkpt lat="44.89817" lon="4.6966">
        <ele>731.7</ele>
        <time>2021-03-14T09:44:23Z</time>
      </trkpt>
      <trkpt lat="44.89812" lon="4.69668">
        <ele>732.18</ele>
        <time>2021-03-14T09:44:29Z</time>
      </trkpt>
      <trkpt lat="44.89811" lon="4.69673">
        <ele>732.66</ele>
        <time>2021-03-14T09:44:33Z</time>
      </trkpt>
      <trkpt lat="44.89804" lon="4.69678">
        <ele>732.66</ele>
        <time>2021-03-14T09:44:43Z</time>
      </trkpt>
      <trkpt lat="44.8979" lon="4.69689">
        <ele>732.66</ele>
        <time>2021-03-14T09:44:52Z</time>
      </trkpt>
      <trkpt lat="44.89784" lon="4.69694">
        <ele>732.18</ele>
        <time>2021-03-14T09:44:56Z</time>
      </trkpt>
      <trkpt lat="44.8977" lon="4.69706">
        <ele>731.7</ele>
        <time>2021-03-14T09:45:10Z</time>
      </trkpt>
      <trkpt lat="44.89758" lon="4.69724">
        <ele>731.7</ele>
        <time>2021-03-14T09:45:23Z</time>
      </trkpt>
      <trkpt lat="44.89747" lon="4.69744">
        <ele>731.7</ele>
        <time>2021-03-14T09:45:34Z</time>
      </trkpt>
      <trkpt lat="44.89733" lon="4.69773">
        <ele>731.7</ele>
        <time>2021-03-14T09:45:49Z</time>
      </trkpt>
      <trkpt lat="44.89725" lon="4.69796">
        <ele>733.14</ele>
        <time>2021-03-14T09:46:02Z</time>
      </trkpt>
      <trkpt lat="44.89723" lon="4.698">
        <ele>732.66</ele>
        <time>2021-03-14T09:46:05Z</time>
      </trkpt>
      <trkpt lat="44.8972" lon="4.69807">
        <ele>733.14</ele>
        <time>2021-03-14T09:46:09Z</time>
      </trkpt>
      <trkpt lat="44.89715" lon="4.69832">
        <ele>734.1</ele>
        <time>2021-03-14T09:46:20Z</time>
      </trkpt>
      <trkpt lat="44.89714" lon="4.69837">
        <ele>734.1</ele>
        <time>2021-03-14T09:46:23Z</time>
      </trkpt>
      <trkpt lat="44.89714" lon="4.69845">
        <ele>734.58</ele>
        <time>2021-03-14T09:46:27Z</time>
      </trkpt>
      <trkpt lat="44.89713" lon="4.69858">
        <ele>735.55</ele>
        <time>2021-03-14T09:46:35Z</time>
      </trkpt>
      <trkpt lat="44.89713" lon="4.69881">
        <ele>737.47</ele>
        <time>2021-03-14T09:46:48Z</time>
      </trkpt>
      <trkpt lat="44.89713" lon="4.69883">
        <ele>737.95</ele>
        <time>2021-03-14T09:46:49Z</time>
      </trkpt>
      <trkpt lat="44.89711" lon="4.69893">
        <ele>738.43</ele>
        <time>2021-03-14T09:46:56Z</time>
      </trkpt>
      <trkpt lat="44.89712" lon="4.69911">
        <ele>740.83</ele>
        <time>2021-03-14T09:47:06Z</time>
      </trkpt>
      <trkpt lat="44.89711" lon="4.69931">
        <ele>742.28</ele>
        <time>2021-03-14T09:47:15Z</time>
      </trkpt>
      <trkpt lat="44.89711" lon="4.69937">
        <ele>742.76</ele>
        <time>2021-03-14T09:47:18Z</time>
      </trkpt>
      <trkpt lat="44.89712" lon="4.6996">
        <ele>745.64</ele>
        <time>2021-03-14T09:47:31Z</time>
      </trkpt>
      <trkpt lat="44.89713" lon="4.69972">
        <ele>746.6</ele>
        <time>2021-03-14T09:47:39Z</time>
      </trkpt>
      <trkpt lat="44.89716" lon="4.69988">
        <ele>749</ele>
        <time>2021-03-14T09:47:50Z</time>
      </trkpt>
      <trkpt lat="44.8972" lon="4.69996">
        <ele>749</ele>
        <time>2021-03-14T09:47:56Z</time>
      </trkpt>
      <trkpt lat="44.89723" lon="4.70016">
        <ele>751.89</ele>
        <time>2021-03-14T09:48:11Z</time>
      </trkpt>
      <trkpt lat="44.89722" lon="4.70019">
        <ele>752.37</ele>
        <time>2021-03-14T09:48:13Z</time>
      </trkpt>
      <trkpt lat="44.89726" lon="4.7003">
        <ele>752.85</ele>
        <time>2021-03-14T09:48:20Z</time>
      </trkpt>
      <trkpt lat="44.89728" lon="4.70045">
        <ele>755.73</ele>
        <time>2021-03-14T09:48:30Z</time>
      </trkpt>
      <trkpt lat="44.89729" lon="4.70052">
        <ele>757.18</ele>
        <time>2021-03-14T09:48:34Z</time>
      </trkpt>
      <trkpt lat="44.89729" lon="4.70055">
        <ele>756.69</ele>
        <time>2021-03-14T09:48:36Z</time>
      </trkpt>
      <trkpt lat="44.89732" lon="4.70059">
        <ele>757.18</ele>
        <time>2021-03-14T09:48:39Z</time>
      </trkpt>
      <trkpt lat="44.89733" lon="4.70066">
        <ele>757.18</ele>
        <time>2021-03-14T09:48:44Z</time>
      </trkpt>
      <trkpt lat="44.89726" lon="4.70076">
        <ele>759.1</ele>
        <time>2021-03-14T09:48:52Z</time>
      </trkpt>
      <trkpt lat="44.89722" lon="4.70077">
        <ele>759.58</ele>
        <time>2021-03-14T09:48:58Z</time>
      </trkpt>
      <trkpt lat="44.89718" lon="4.70097">
        <ele>758.14</ele>
        <time>2021-03-14T09:49:10Z</time>
      </trkpt>
      <trkpt lat="44.89714" lon="4.7012">
        <ele>754.77</ele>
        <time>2021-03-14T09:49:23Z</time>
      </trkpt>
      <trkpt lat="44.89712" lon="4.70139">
        <ele>753.33</ele>
        <time>2021-03-14T09:49:34Z</time>
      </trkpt>
      <trkpt lat="44.89704" lon="4.70163">
        <ele>751.41</ele>
        <time>2021-03-14T09:49:47Z</time>
      </trkpt>
      <trkpt lat="44.8969" lon="4.70184">
        <ele>749.97</ele>
        <time>2021-03-14T09:50:02Z</time>
      </trkpt>
      <trkpt lat="44.89684" lon="4.7019">
        <ele>749.49</ele>
        <time>2021-03-14T09:50:07Z</time>
      </trkpt>
      <trkpt lat="44.89678" lon="4.70193">
        <ele>749</ele>
        <time>2021-03-14T09:50:11Z</time>
      </trkpt>
      <trkpt lat="44.89662" lon="4.70195">
        <ele>745.64</ele>
        <time>2021-03-14T09:50:26Z</time>
      </trkpt>
      <trkpt lat="44.89649" lon="4.70193">
        <ele>743.24</ele>
        <time>2021-03-14T09:50:37Z</time>
      </trkpt>
      <trkpt lat="44.89628" lon="4.70196">
        <ele>740.35</ele>
        <time>2021-03-14T09:50:52Z</time>
      </trkpt>
      <trkpt lat="44.89624" lon="4.70199">
        <ele>739.87</ele>
        <time>2021-03-14T09:50:56Z</time>
      </trkpt>
      <trkpt lat="44.8961" lon="4.70211">
        <ele>738.43</ele>
        <time>2021-03-14T09:51:07Z</time>
      </trkpt>
      <trkpt lat="44.89604" lon="4.70224">
        <ele>737.95</ele>
        <time>2021-03-14T09:51:14Z</time>
      </trkpt>
      <trkpt lat="44.896" lon="4.70234">
        <ele>738.91</ele>
        <time>2021-03-14T09:51:27Z</time>
      </trkpt>
      <trkpt lat="44.89589" lon="4.70263">
        <ele>738.91</ele>
        <time>2021-03-14T09:51:40Z</time>
      </trkpt>
      <trkpt lat="44.89587" lon="4.70279">
        <ele>738.91</ele>
        <time>2021-03-14T09:51:47Z</time>
      </trkpt>
      <trkpt lat="44.89583" lon="4.70292">
        <ele>738.91</ele>
        <time>2021-03-14T09:51:57Z</time>
      </trkpt>
      <trkpt lat="44.89582" lon="4.70298">
        <ele>739.39</ele>
        <time>2021-03-14T09:52:01Z</time>
      </trkpt>
      <trkpt lat="44.89583" lon="4.70307">
        <ele>738.91</ele>
        <time>2021-03-14T09:52:05Z</time>
      </trkpt>
      <trkpt lat="44.89585" lon="4.70313">
        <ele>738.91</ele>
        <time>2021-03-14T09:52:08Z</time>
      </trkpt>
      <trkpt lat="44.89588" lon="4.70325">
        <ele>739.39</ele>
        <time>2021-03-14T09:52:16Z</time>
      </trkpt>
      <trkpt lat="44.89591" lon="4.70333">
        <ele>739.39</ele>
        <time>2021-03-14T09:52:20Z</time>
      </trkpt>
      <trkpt lat="44.89594" lon="4.70355">
        <ele>739.39</ele>
        <time>2021-03-14T09:52:32Z</time>
      </trkpt>
      <trkpt lat="44.89595" lon="4.70357">
        <ele>738.91</ele>
        <time>2021-03-14T09:52:34Z</time>
      </trkpt>
      <trkpt lat="44.89602" lon="4.70383">
        <ele>738.91</ele>
        <time>2021-03-14T09:52:47Z</time>
      </trkpt>
      <trkpt lat="44.89602" lon="4.704">
        <ele>738.43</ele>
        <time>2021-03-14T09:52:58Z</time>
      </trkpt>
      <trkpt lat="44.89601" lon="4.70408">
        <ele>737.95</ele>
        <time>2021-03-14T09:53:03Z</time>
      </trkpt>
      <trkpt lat="44.89601" lon="4.70416">
        <ele>737.47</ele>
        <time>2021-03-14T09:53:07Z</time>
      </trkpt>
      <trkpt lat="44.89596" lon="4.70434">
        <ele>736.51</ele>
        <time>2021-03-14T09:53:16Z</time>
      </trkpt>
      <trkpt lat="44.89591" lon="4.70444">
        <ele>736.99</ele>
        <time>2021-03-14T09:53:20Z</time>
      </trkpt>
      <trkpt lat="44.89588" lon="4.70454">
        <ele>736.99</ele>
        <time>2021-03-14T09:53:27Z</time>
      </trkpt>
      <trkpt lat="44.89583" lon="4.7048">
        <ele>736.51</ele>
        <time>2021-03-14T09:53:41Z</time>
      </trkpt>
      <trkpt lat="44.8958" lon="4.70495">
        <ele>736.51</ele>
        <time>2021-03-14T09:53:51Z</time>
      </trkpt>
      <trkpt lat="44.8958" lon="4.70499">
        <ele>736.03</ele>
        <time>2021-03-14T09:53:53Z</time>
      </trkpt>
      <trkpt lat="44.89577" lon="4.70511">
        <ele>736.51</ele>
        <time>2021-03-14T09:53:59Z</time>
      </trkpt>
      <trkpt lat="44.8958" lon="4.70536">
        <ele>736.51</ele>
        <time>2021-03-14T09:54:11Z</time>
      </trkpt>
      <trkpt lat="44.89581" lon="4.7054">
        <ele>736.03</ele>
        <time>2021-03-14T09:54:14Z</time>
      </trkpt>
      <trkpt lat="44.89582" lon="4.70545">
        <ele>736.03</ele>
        <time>2021-03-14T09:54:17Z</time>
      </trkpt>
      <trkpt lat="44.89582" lon="4.70553">
        <ele>735.07</ele>
        <time>2021-03-14T09:54:21Z</time>
      </trkpt>
      <trkpt lat="44.89587" lon="4.70562">
        <ele>732.66</ele>
        <time>2021-03-14T09:54:32Z</time>
      </trkpt>
      <trkpt lat="44.89588" lon="4.70567">
        <ele>731.7</ele>
        <time>2021-03-14T09:54:35Z</time>
      </trkpt>
      <trkpt lat="44.8959" lon="4.70572">
        <ele>730.74</ele>
        <time>2021-03-14T09:54:38Z</time>
      </trkpt>
      <trkpt lat="44.89596" lon="4.70588">
        <ele>729.78</ele>
        <time>2021-03-14T09:54:47Z</time>
      </trkpt>
      <trkpt lat="44.89598" lon="4.7059">
        <ele>729.3</ele>
        <time>2021-03-14T09:54:49Z</time>
      </trkpt>
      <trkpt lat="44.89601" lon="4.70601">
        <ele>728.82</ele>
        <time>2021-03-14T09:54:54Z</time>
      </trkpt>
      <trkpt lat="44.89603" lon="4.70604">
        <ele>728.34</ele>
        <time>2021-03-14T09:54:56Z</time>
      </trkpt>
      <trkpt lat="44.89608" lon="4.70615">
        <ele>727.37</ele>
        <time>2021-03-14T09:55:05Z</time>
      </trkpt>
      <trkpt lat="44.89618" lon="4.70626">
        <ele>725.45</ele>
        <time>2021-03-14T09:55:17Z</time>
      </trkpt>
      <trkpt lat="44.89619" lon="4.70629">
        <ele>724.97</ele>
        <time>2021-03-14T09:55:20Z</time>
      </trkpt>
      <trkpt lat="44.89619" lon="4.70635">
        <ele>724.49</ele>
        <time>2021-03-14T09:55:22Z</time>
      </trkpt>
      <trkpt lat="44.89624" lon="4.70662">
        <ele>722.09</ele>
        <time>2021-03-14T09:55:35Z</time>
      </trkpt>
      <trkpt lat="44.89625" lon="4.70665">
        <ele>721.13</ele>
        <time>2021-03-14T09:55:39Z</time>
      </trkpt>
      <trkpt lat="44.89628" lon="4.70674">
        <ele>719.68</ele>
        <time>2021-03-14T09:55:45Z</time>
      </trkpt>
      <trkpt lat="44.89642" lon="4.7069">
        <ele>718.72</ele>
        <time>2021-03-14T09:55:58Z</time>
      </trkpt>
      <trkpt lat="44.89646" lon="4.70699">
        <ele>718.72</ele>
        <time>2021-03-14T09:56:03Z</time>
      </trkpt>
      <trkpt lat="44.89653" lon="4.7072">
        <ele>717.76</ele>
        <time>2021-03-14T09:56:15Z</time>
      </trkpt>
      <trkpt lat="44.89658" lon="4.70737">
        <ele>715.84</ele>
        <time>2021-03-14T09:56:27Z</time>
      </trkpt>
      <trkpt lat="44.8966" lon="4.70742">
        <ele>714.88</ele>
        <time>2021-03-14T09:56:32Z</time>
      </trkpt>
      <trkpt lat="44.89667" lon="4.70754">
        <ele>714.4</ele>
        <time>2021-03-14T09:56:38Z</time>
      </trkpt>
      <trkpt lat="44.89679" lon="4.70768">
        <ele>713.44</ele>
        <time>2021-03-14T09:56:52Z</time>
      </trkpt>
      <trkpt lat="44.89682" lon="4.7078">
        <ele>713.92</ele>
        <time>2021-03-14T09:57:02Z</time>
      </trkpt>
      <trkpt lat="44.89681" lon="4.70783">
        <ele>714.88</ele>
        <time>2021-03-14T09:57:09Z</time>
      </trkpt>
      <trkpt lat="44.89676" lon="4.70784">
        <ele>714.88</ele>
        <time>2021-03-14T09:57:12Z</time>
      </trkpt>
      <trkpt lat="44.89666" lon="4.70793">
        <ele>715.84</ele>
        <time>2021-03-14T09:57:19Z</time>
      </trkpt>
      <trkpt lat="44.8965" lon="4.70807">
        <ele>716.32</ele>
        <time>2021-03-14T09:57:31Z</time>
      </trkpt>
      <trkpt lat="44.89641" lon="4.70815">
        <ele>716.32</ele>
        <time>2021-03-14T09:57:40Z</time>
      </trkpt>
      <trkpt lat="44.89635" lon="4.70817">
        <ele>716.32</ele>
        <time>2021-03-14T09:57:46Z</time>
      </trkpt>
      <trkpt lat="44.89627" lon="4.70818">
        <ele>716.8</ele>
        <time>2021-03-14T09:57:52Z</time>
      </trkpt>
      <trkpt lat="44.89616" lon="4.70819">
        <ele>717.28</ele>
        <time>2021-03-14T09:58:00Z</time>
      </trkpt>
      <trkpt lat="44.89613" lon="4.70821">
        <ele>717.28</ele>
        <time>2021-03-14T09:58:03Z</time>
      </trkpt>
      <trkpt lat="44.89606" lon="4.70828">
        <ele>718.24</ele>
        <time>2021-03-14T09:58:10Z</time>
      </trkpt>
      <trkpt lat="44.89587" lon="4.70831">
        <ele>718.72</ele>
        <time>2021-03-14T09:58:22Z</time>
      </trkpt>
      <trkpt lat="44.89586" lon="4.70831">
        <ele>719.2</ele>
        <time>2021-03-14T09:58:23Z</time>
      </trkpt>
      <trkpt lat="44.89578" lon="4.70838">
        <ele>719.2</ele>
        <time>2021-03-14T09:58:31Z</time>
      </trkpt>
      <trkpt lat="44.89575" lon="4.70837">
        <ele>719.2</ele>
        <time>2021-03-14T09:58:33Z</time>
      </trkpt>
      <trkpt lat="44.89571" lon="4.70836">
        <ele>719.2</ele>
        <time>2021-03-14T09:58:35Z</time>
      </trkpt>
      <trkpt lat="44.89552" lon="4.70838">
        <ele>718.72</ele>
        <time>2021-03-14T09:58:48Z</time>
      </trkpt>
      <trkpt lat="44.89544" lon="4.70839">
        <ele>718.72</ele>
        <time>2021-03-14T09:58:55Z</time>
      </trkpt>
      <trkpt lat="44.89534" lon="4.70848">
        <ele>719.2</ele>
        <time>2021-03-14T09:59:05Z</time>
      </trkpt>
      <trkpt lat="44.89534" lon="4.70848">
        <ele>719.2</ele>
        <time>2021-03-14T09:59:06Z</time>
      </trkpt>
      <trkpt lat="44.89516" lon="4.70849">
        <ele>718.72</ele>
        <time>2021-03-14T09:59:19Z</time>
      </trkpt>
      <trkpt lat="44.89511" lon="4.70847">
        <ele>718.24</ele>
        <time>2021-03-14T09:59:23Z</time>
      </trkpt>
      <trkpt lat="44.89505" lon="4.70846">
        <ele>717.76</ele>
        <time>2021-03-14T09:59:26Z</time>
      </trkpt>
      <trkpt lat="44.89492" lon="4.70845">
        <ele>718.24</ele>
        <time>2021-03-14T09:59:39Z</time>
      </trkpt>
      <trkpt lat="44.89481" lon="4.70843">
        <ele>718.24</ele>
        <time>2021-03-14T09:59:48Z</time>
      </trkpt>
      <trkpt lat="44.8947" lon="4.70844">
        <ele>717.28</ele>
        <time>2021-03-14T09:59:58Z</time>
      </trkpt>
      <trkpt lat="44.89462" lon="4.70847">
        <ele>716.8</ele>
        <time>2021-03-14T10:00:07Z</time>
      </trkpt>
      <trkpt lat="44.89458" lon="4.70849">
        <ele>717.28</ele>
        <time>2021-03-14T10:00:10Z</time>
      </trkpt>
      <trkpt lat="44.89455" lon="4.70851">
        <ele>717.28</ele>
        <time>2021-03-14T10:00:12Z</time>
      </trkpt>
      <trkpt lat="44.89448" lon="4.70851">
        <ele>716.8</ele>
        <time>2021-03-14T10:00:18Z</time>
      </trkpt>
      <trkpt lat="44.89442" lon="4.70852">
        <ele>716.32</ele>
        <time>2021-03-14T10:00:23Z</time>
      </trkpt>
      <trkpt lat="44.89439" lon="4.70854">
        <ele>716.32</ele>
        <time>2021-03-14T10:00:25Z</time>
      </trkpt>
      <trkpt lat="44.89436" lon="4.70856">
        <ele>715.84</ele>
        <time>2021-03-14T10:00:28Z</time>
      </trkpt>
      <trkpt lat="44.89423" lon="4.70857">
        <ele>715.84</ele>
        <time>2021-03-14T10:00:38Z</time>
      </trkpt>
      <trkpt lat="44.89406" lon="4.70857">
        <ele>714.88</ele>
        <time>2021-03-14T10:00:51Z</time>
      </trkpt>
      <trkpt lat="44.89404" lon="4.70857">
        <ele>714.88</ele>
        <time>2021-03-14T10:00:53Z</time>
      </trkpt>
      <trkpt lat="44.89388" lon="4.70864">
        <ele>713.92</ele>
        <time>2021-03-14T10:01:06Z</time>
      </trkpt>
      <trkpt lat="44.89387" lon="4.70863">
        <ele>714.4</ele>
        <time>2021-03-14T10:01:08Z</time>
      </trkpt>
      <trkpt lat="44.89383" lon="4.70864">
        <ele>713.92</ele>
        <time>2021-03-14T10:01:12Z</time>
      </trkpt>
      <trkpt lat="44.89371" lon="4.70868">
        <ele>713.44</ele>
        <time>2021-03-14T10:01:21Z</time>
      </trkpt>
      <trkpt lat="44.89357" lon="4.70875">
        <ele>712.95</ele>
        <time>2021-03-14T10:01:31Z</time>
      </trkpt>
      <trkpt lat="44.89345" lon="4.70873">
        <ele>711.51</ele>
        <time>2021-03-14T10:01:42Z</time>
      </trkpt>
      <trkpt lat="44.89328" lon="4.70873">
        <ele>710.55</ele>
        <time>2021-03-14T10:01:54Z</time>
      </trkpt>
      <trkpt lat="44.89324" lon="4.70874">
        <ele>711.03</ele>
        <time>2021-03-14T10:01:57Z</time>
      </trkpt>
      <trkpt lat="44.89305" lon="4.70876">
        <ele>711.03</ele>
        <time>2021-03-14T10:02:10Z</time>
      </trkpt>
      <trkpt lat="44.89304" lon="4.70876">
        <ele>711.03</ele>
        <time>2021-03-14T10:02:11Z</time>
      </trkpt>
      <trkpt lat="44.89283" lon="4.70869">
        <ele>710.07</ele>
        <time>2021-03-14T10:02:21Z</time>
      </trkpt>
      <trkpt lat="44.89265" lon="4.70869">
        <ele>709.11</ele>
        <time>2021-03-14T10:02:36Z</time>
      </trkpt>
      <trkpt lat="44.89249" lon="4.70862">
        <ele>707.19</ele>
        <time>2021-03-14T10:02:50Z</time>
      </trkpt>
      <trkpt lat="44.89231" lon="4.70855">
        <ele>705.26</ele>
        <time>2021-03-14T10:03:01Z</time>
      </trkpt>
      <trkpt lat="44.89214" lon="4.70855">
        <ele>703.34</ele>
        <time>2021-03-14T10:03:14Z</time>
      </trkpt>
      <trkpt lat="44.89212" lon="4.70856">
        <ele>703.34</ele>
        <time>2021-03-14T10:03:15Z</time>
      </trkpt>
      <trkpt lat="44.89199" lon="4.70865">
        <ele>702.86</ele>
        <time>2021-03-14T10:03:25Z</time>
      </trkpt>
      <trkpt lat="44.89197" lon="4.70866">
        <ele>702.86</ele>
        <time>2021-03-14T10:03:27Z</time>
      </trkpt>
      <trkpt lat="44.89182" lon="4.7087">
        <ele>700.94</ele>
        <time>2021-03-14T10:03:39Z</time>
      </trkpt>
      <trkpt lat="44.89177" lon="4.70866">
        <ele>699.98</ele>
        <time>2021-03-14T10:03:45Z</time>
      </trkpt>
      <trkpt lat="44.89168" lon="4.70853">
        <ele>698.05</ele>
        <time>2021-03-14T10:03:57Z</time>
      </trkpt>
      <trkpt lat="44.89166" lon="4.7085">
        <ele>697.09</ele>
        <time>2021-03-14T10:04:02Z</time>
      </trkpt>
      <trkpt lat="44.89158" lon="4.70844">
        <ele>696.13</ele>
        <time>2021-03-14T10:04:08Z</time>
      </trkpt>
      <trkpt lat="44.89147" lon="4.70842">
        <ele>692.77</ele>
        <time>2021-03-14T10:04:21Z</time>
      </trkpt>
      <trkpt lat="44.89141" lon="4.7084">
        <ele>691.33</ele>
        <time>2021-03-14T10:04:26Z</time>
      </trkpt>
      <trkpt lat="44.89132" lon="4.70836">
        <ele>690.36</ele>
        <time>2021-03-14T10:04:31Z</time>
      </trkpt>
      <trkpt lat="44.89113" lon="4.70827">
        <ele>688.92</ele>
        <time>2021-03-14T10:04:44Z</time>
      </trkpt>
      <trkpt lat="44.89105" lon="4.70824">
        <ele>687.96</ele>
        <time>2021-03-14T10:04:50Z</time>
      </trkpt>
      <trkpt lat="44.89086" lon="4.70825">
        <ele>686.52</ele>
        <time>2021-03-14T10:05:04Z</time>
      </trkpt>
      <trkpt lat="44.8908" lon="4.70822">
        <ele>685.56</ele>
        <time>2021-03-14T10:05:11Z</time>
      </trkpt>
      <trkpt lat="44.89074" lon="4.70823">
        <ele>685.08</ele>
        <time>2021-03-14T10:05:15Z</time>
      </trkpt>
      <trkpt lat="44.89062" lon="4.70827">
        <ele>682.19</ele>
        <time>2021-03-14T10:05:24Z</time>
      </trkpt>
      <trkpt lat="44.8906" lon="4.70828">
        <ele>682.19</ele>
        <time>2021-03-14T10:05:28Z</time>
      </trkpt>
      <trkpt lat="44.89057" lon="4.70829">
        <ele>681.71</ele>
        <time>2021-03-14T10:05:32Z</time>
      </trkpt>
      <trkpt lat="44.8906" lon="4.70842">
        <ele>680.75</ele>
        <time>2021-03-14T10:05:44Z</time>
      </trkpt>
      <trkpt lat="44.8906" lon="4.70844">
        <ele>680.75</ele>
        <time>2021-03-14T10:05:45Z</time>
      </trkpt>
      <trkpt lat="44.89064" lon="4.70863">
        <ele>679.79</ele>
        <time>2021-03-14T10:05:56Z</time>
      </trkpt>
      <trkpt lat="44.89061" lon="4.7087">
        <ele>679.31</ele>
        <time>2021-03-14T10:06:01Z</time>
      </trkpt>
      <trkpt lat="44.89058" lon="4.7088">
        <ele>679.31</ele>
        <time>2021-03-14T10:06:06Z</time>
      </trkpt>
      <trkpt lat="44.89063" lon="4.70905">
        <ele>677.87</ele>
        <time>2021-03-14T10:06:18Z</time>
      </trkpt>
      <trkpt lat="44.89065" lon="4.70908">
        <ele>679.31</ele>
        <time>2021-03-14T10:06:22Z</time>
      </trkpt>
      <trkpt lat="44.89066" lon="4.70915">
        <ele>679.79</ele>
        <time>2021-03-14T10:06:26Z</time>
      </trkpt>
      <trkpt lat="44.89065" lon="4.70921">
        <ele>680.27</ele>
        <time>2021-03-14T10:06:30Z</time>
      </trkpt>
      <trkpt lat="44.89064" lon="4.70924">
        <ele>679.79</ele>
        <time>2021-03-14T10:06:35Z</time>
      </trkpt>
      <trkpt lat="44.89061" lon="4.70927">
        <ele>680.27</ele>
        <time>2021-03-14T10:06:39Z</time>
      </trkpt>
      <trkpt lat="44.89059" lon="4.70929">
        <ele>679.31</ele>
        <time>2021-03-14T10:06:41Z</time>
      </trkpt>
      <trkpt lat="44.89056" lon="4.70934">
        <ele>678.83</ele>
        <time>2021-03-14T10:06:45Z</time>
      </trkpt>
      <trkpt lat="44.89047" lon="4.7095">
        <ele>675.46</ele>
        <time>2021-03-14T10:06:58Z</time>
      </trkpt>
      <trkpt lat="44.89037" lon="4.70974">
        <ele>673.54</ele>
        <time>2021-03-14T10:07:12Z</time>
      </trkpt>
      <trkpt lat="44.89032" lon="4.70991">
        <ele>672.1</ele>
        <time>2021-03-14T10:07:22Z</time>
      </trkpt>
      <trkpt lat="44.89019" lon="4.71013">
        <ele>670.66</ele>
        <time>2021-03-14T10:07:37Z</time>
      </trkpt>
      <trkpt lat="44.89006" lon="4.71035">
        <ele>671.14</ele>
        <time>2021-03-14T10:07:51Z</time>
      </trkpt>
      <trkpt lat="44.88999" lon="4.71055">
        <ele>671.14</ele>
        <time>2021-03-14T10:08:03Z</time>
      </trkpt>
      <trkpt lat="44.8899" lon="4.71078">
        <ele>671.62</ele>
        <time>2021-03-14T10:08:17Z</time>
      </trkpt>
      <trkpt lat="44.8899" lon="4.71083">
        <ele>672.58</ele>
        <time>2021-03-14T10:08:22Z</time>
      </trkpt>
      <trkpt lat="44.88985" lon="4.71101">
        <ele>674.02</ele>
        <time>2021-03-14T10:08:33Z</time>
      </trkpt>
      <trkpt lat="44.88979" lon="4.71116">
        <ele>675.46</ele>
        <time>2021-03-14T10:08:42Z</time>
      </trkpt>
      <trkpt lat="44.88978" lon="4.71137">
        <ele>676.91</ele>
        <time>2021-03-14T10:08:54Z</time>
      </trkpt>
      <trkpt lat="44.88977" lon="4.7115">
        <ele>677.39</ele>
        <time>2021-03-14T10:09:01Z</time>
      </trkpt>
      <trkpt lat="44.88987" lon="4.7117">
        <ele>678.35</ele>
        <time>2021-03-14T10:09:15Z</time>
      </trkpt>
      <trkpt lat="44.88988" lon="4.71173">
        <ele>678.35</ele>
        <time>2021-03-14T10:09:17Z</time>
      </trkpt>
      <trkpt lat="44.88996" lon="4.71186">
        <ele>679.31</ele>
        <time>2021-03-14T10:09:27Z</time>
      </trkpt>
      <trkpt lat="44.89003" lon="4.71196">
        <ele>680.27</ele>
        <time>2021-03-14T10:09:37Z</time>
      </trkpt>
      <trkpt lat="44.89017" lon="4.71208">
        <ele>681.71</ele>
        <time>2021-03-14T10:09:50Z</time>
      </trkpt>
      <trkpt lat="44.89017" lon="4.71209">
        <ele>681.71</ele>
        <time>2021-03-14T10:09:51Z</time>
      </trkpt>
      <trkpt lat="44.89035" lon="4.71219">
        <ele>682.19</ele>
        <time>2021-03-14T10:10:03Z</time>
      </trkpt>
      <trkpt lat="44.89039" lon="4.71221">
        <ele>682.67</ele>
        <time>2021-03-14T10:10:05Z</time>
      </trkpt>
      <trkpt lat="44.89042" lon="4.71222">
        <ele>682.67</ele>
        <time>2021-03-14T10:10:07Z</time>
      </trkpt>
      <trkpt lat="44.89054" lon="4.71229">
        <ele>683.15</ele>
        <time>2021-03-14T10:10:17Z</time>
      </trkpt>
      <trkpt lat="44.89064" lon="4.71238">
        <ele>684.12</ele>
        <time>2021-03-14T10:10:27Z</time>
      </trkpt>
      <trkpt lat="44.89077" lon="4.71247">
        <ele>684.6</ele>
        <time>2021-03-14T10:10:39Z</time>
      </trkpt>
      <trkpt lat="44.8908" lon="4.71248">
        <ele>684.6</ele>
        <time>2021-03-14T10:10:42Z</time>
      </trkpt>
      <trkpt lat="44.89085" lon="4.7125">
        <ele>685.08</ele>
        <time>2021-03-14T10:10:47Z</time>
      </trkpt>
      <trkpt lat="44.89091" lon="4.71253">
        <ele>685.08</ele>
        <time>2021-03-14T10:10:51Z</time>
      </trkpt>
      <trkpt lat="44.89096" lon="4.71256">
        <ele>685.56</ele>
        <time>2021-03-14T10:10:56Z</time>
      </trkpt>
      <trkpt lat="44.891" lon="4.71261">
        <ele>686.04</ele>
        <time>2021-03-14T10:11:00Z</time>
      </trkpt>
      <trkpt lat="44.89102" lon="4.71265">
        <ele>686.04</ele>
        <time>2021-03-14T10:11:02Z</time>
      </trkpt>
      <trkpt lat="44.89106" lon="4.71277">
        <ele>686.52</ele>
        <time>2021-03-14T10:11:09Z</time>
      </trkpt>
      <trkpt lat="44.89115" lon="4.7129">
        <ele>687.48</ele>
        <time>2021-03-14T10:11:18Z</time>
      </trkpt>
      <trkpt lat="44.89122" lon="4.71295">
        <ele>687.96</ele>
        <time>2021-03-14T10:11:23Z</time>
      </trkpt>
      <trkpt lat="44.89126" lon="4.71302">
        <ele>687.96</ele>
        <time>2021-03-14T10:11:29Z</time>
      </trkpt>
      <trkpt lat="44.8913" lon="4.71308">
        <ele>688.44</ele>
        <time>2021-03-14T10:11:34Z</time>
      </trkpt>
      <trkpt lat="44.89139" lon="4.71318">
        <ele>690.84</ele>
        <time>2021-03-14T10:11:49Z</time>
      </trkpt>
      <trkpt lat="44.89158" lon="4.71316">
        <ele>691.33</ele>
        <time>2021-03-14T10:12:00Z</time>
      </trkpt>
      <trkpt lat="44.89162" lon="4.71314">
        <ele>690.84</ele>
        <time>2021-03-14T10:12:05Z</time>
      </trkpt>
      <trkpt lat="44.89175" lon="4.713">
        <ele>691.81</ele>
        <time>2021-03-14T10:12:18Z</time>
      </trkpt>
      <trkpt lat="44.89181" lon="4.71294">
        <ele>692.77</ele>
        <time>2021-03-14T10:12:24Z</time>
      </trkpt>
      <trkpt lat="44.89191" lon="4.71286">
        <ele>692.29</ele>
        <time>2021-03-14T10:12:32Z</time>
      </trkpt>
      <trkpt lat="44.89197" lon="4.71283">
        <ele>695.17</ele>
        <time>2021-03-14T10:12:37Z</time>
      </trkpt>
      <trkpt lat="44.89199" lon="4.71282">
        <ele>692.29</ele>
        <time>2021-03-14T10:12:38Z</time>
      </trkpt>
      <trkpt lat="44.89204" lon="4.71279">
        <ele>693.73</ele>
        <time>2021-03-14T10:12:42Z</time>
      </trkpt>
      <trkpt lat="44.89218" lon="4.71274">
        <ele>692.29</ele>
        <time>2021-03-14T10:12:53Z</time>
      </trkpt>
      <trkpt lat="44.89219" lon="4.71274">
        <ele>695.17</ele>
        <time>2021-03-14T10:12:54Z</time>
      </trkpt>
      <trkpt lat="44.89225" lon="4.71272">
        <ele>693.73</ele>
        <time>2021-03-14T10:12:58Z</time>
      </trkpt>
      <trkpt lat="44.89238" lon="4.71271">
        <ele>694.69</ele>
        <time>2021-03-14T10:13:12Z</time>
      </trkpt>
      <trkpt lat="44.89253" lon="4.71267">
        <ele>695.65</ele>
        <time>2021-03-14T10:13:24Z</time>
      </trkpt>
      <trkpt lat="44.89256" lon="4.71267">
        <ele>696.13</ele>
        <time>2021-03-14T10:13:28Z</time>
      </trkpt>
      <trkpt lat="44.89272" lon="4.71264">
        <ele>696.61</ele>
        <time>2021-03-14T10:13:38Z</time>
      </trkpt>
      <trkpt lat="44.89276" lon="4.71262">
        <ele>697.09</ele>
        <time>2021-03-14T10:13:41Z</time>
      </trkpt>
      <trkpt lat="44.89286" lon="4.71261">
        <ele>697.57</ele>
        <time>2021-03-14T10:13:50Z</time>
      </trkpt>
      <trkpt lat="44.89289" lon="4.7126">
        <ele>698.05</ele>
        <time>2021-03-14T10:13:52Z</time>
      </trkpt>
      <trkpt lat="44.89303" lon="4.71254">
        <ele>698.05</ele>
        <time>2021-03-14T10:14:03Z</time>
      </trkpt>
      <trkpt lat="44.89318" lon="4.71255">
        <ele>699.02</ele>
        <time>2021-03-14T10:14:16Z</time>
      </trkpt>
      <trkpt lat="44.89325" lon="4.71258">
        <ele>699.5</ele>
        <time>2021-03-14T10:14:21Z</time>
      </trkpt>
      <trkpt lat="44.89341" lon="4.71271">
        <ele>700.94</ele>
        <time>2021-03-14T10:14:35Z</time>
      </trkpt>
      <trkpt lat="44.89347" lon="4.71279">
        <ele>701.9</ele>
        <time>2021-03-14T10:14:43Z</time>
      </trkpt>
      <trkpt lat="44.89341" lon="4.71298">
        <ele>701.42</ele>
        <time>2021-03-14T10:14:57Z</time>
      </trkpt>
      <trkpt lat="44.89331" lon="4.71304">
        <ele>703.34</ele>
        <time>2021-03-14T10:15:05Z</time>
      </trkpt>
      <trkpt lat="44.89314" lon="4.71316">
        <ele>705.26</ele>
        <time>2021-03-14T10:15:16Z</time>
      </trkpt>
      <trkpt lat="44.89308" lon="4.7132">
        <ele>706.23</ele>
        <time>2021-03-14T10:15:22Z</time>
      </trkpt>
      <trkpt lat="44.89307" lon="4.71323">
        <ele>706.23</ele>
        <time>2021-03-14T10:15:24Z</time>
      </trkpt>
      <trkpt lat="44.893" lon="4.71335">
        <ele>706.71</ele>
        <time>2021-03-14T10:15:35Z</time>
      </trkpt>
      <trkpt lat="44.89297" lon="4.71344">
        <ele>707.67</ele>
        <time>2021-03-14T10:15:41Z</time>
      </trkpt>
      <trkpt lat="44.89293" lon="4.71348">
        <ele>708.15</ele>
        <time>2021-03-14T10:15:45Z</time>
      </trkpt>
      <trkpt lat="44.89286" lon="4.71362">
        <ele>710.07</ele>
        <time>2021-03-14T10:15:57Z</time>
      </trkpt>
      <trkpt lat="44.89286" lon="4.71363">
        <ele>710.07</ele>
        <time>2021-03-14T10:15:58Z</time>
      </trkpt>
      <trkpt lat="44.89284" lon="4.71385">
        <ele>711.99</ele>
        <time>2021-03-14T10:16:11Z</time>
      </trkpt>
      <trkpt lat="44.89283" lon="4.7139">
        <ele>712.95</ele>
        <time>2021-03-14T10:16:13Z</time>
      </trkpt>
      <trkpt lat="44.89282" lon="4.71398">
        <ele>713.44</ele>
        <time>2021-03-14T10:16:19Z</time>
      </trkpt>
      <trkpt lat="44.89273" lon="4.71418">
        <ele>714.4</ele>
        <time>2021-03-14T10:16:32Z</time>
      </trkpt>
      <trkpt lat="44.89273" lon="4.7142">
        <ele>715.36</ele>
        <time>2021-03-14T10:16:36Z</time>
      </trkpt>
      <trkpt lat="44.89263" lon="4.7143">
        <ele>715.84</ele>
        <time>2021-03-14T10:16:45Z</time>
      </trkpt>
      <trkpt lat="44.89258" lon="4.7144">
        <ele>716.8</ele>
        <time>2021-03-14T10:16:52Z</time>
      </trkpt>
      <trkpt lat="44.89256" lon="4.71443">
        <ele>716.8</ele>
        <time>2021-03-14T10:16:54Z</time>
      </trkpt>
      <trkpt lat="44.89255" lon="4.71451">
        <ele>717.28</ele>
        <time>2021-03-14T10:16:58Z</time>
      </trkpt>
      <trkpt lat="44.89253" lon="4.71456">
        <ele>717.28</ele>
        <time>2021-03-14T10:17:01Z</time>
      </trkpt>
      <trkpt lat="44.89249" lon="4.71466">
        <ele>718.72</ele>
        <time>2021-03-14T10:17:08Z</time>
      </trkpt>
      <trkpt lat="44.89244" lon="4.71484">
        <ele>720.16</ele>
        <time>2021-03-14T10:17:22Z</time>
      </trkpt>
      <trkpt lat="44.89241" lon="4.71489">
        <ele>720.65</ele>
        <time>2021-03-14T10:17:26Z</time>
      </trkpt>
      <trkpt lat="44.8924" lon="4.71493">
        <ele>721.13</ele>
        <time>2021-03-14T10:17:29Z</time>
      </trkpt>
      <trkpt lat="44.89237" lon="4.71502">
        <ele>722.09</ele>
        <time>2021-03-14T10:17:37Z</time>
      </trkpt>
      <trkpt lat="44.89235" lon="4.71515">
        <ele>722.57</ele>
        <time>2021-03-14T10:17:45Z</time>
      </trkpt>
      <trkpt lat="44.89234" lon="4.71527">
        <ele>724.49</ele>
        <time>2021-03-14T10:17:57Z</time>
      </trkpt>
      <trkpt lat="44.89234" lon="4.71527">
        <ele>724.49</ele>
        <time>2021-03-14T10:17:58Z</time>
      </trkpt>
      <trkpt lat="44.89233" lon="4.71537">
        <ele>725.45</ele>
        <time>2021-03-14T10:18:05Z</time>
      </trkpt>
      <trkpt lat="44.89233" lon="4.71549">
        <ele>726.41</ele>
        <time>2021-03-14T10:18:11Z</time>
      </trkpt>
      <trkpt lat="44.89234" lon="4.71568">
        <ele>727.86</ele>
        <time>2021-03-14T10:18:21Z</time>
      </trkpt>
      <trkpt lat="44.89232" lon="4.71576">
        <ele>728.82</ele>
        <time>2021-03-14T10:18:29Z</time>
      </trkpt>
      <trkpt lat="44.8923" lon="4.71582">
        <ele>729.78</ele>
        <time>2021-03-14T10:18:34Z</time>
      </trkpt>
      <trkpt lat="44.89224" lon="4.71601">
        <ele>732.18</ele>
        <time>2021-03-14T10:18:46Z</time>
      </trkpt>
      <trkpt lat="44.89217" lon="4.71619">
        <ele>734.1</ele>
        <time>2021-03-14T10:18:58Z</time>
      </trkpt>
      <trkpt lat="44.89217" lon="4.71619">
        <ele>733.62</ele>
        <time>2021-03-14T10:19:00Z</time>
      </trkpt>
      <trkpt lat="44.89213" lon="4.71631">
        <ele>734.58</ele>
        <time>2021-03-14T10:19:08Z</time>
      </trkpt>
      <trkpt lat="44.89206" lon="4.71656">
        <ele>735.55</ele>
        <time>2021-03-14T10:19:22Z</time>
      </trkpt>
      <trkpt lat="44.89206" lon="4.71665">
        <ele>735.55</ele>
        <time>2021-03-14T10:19:30Z</time>
      </trkpt>
      <trkpt lat="44.89204" lon="4.71675">
        <ele>736.99</ele>
        <time>2021-03-14T10:19:37Z</time>
      </trkpt>
      <trkpt lat="44.89203" lon="4.71679">
        <ele>736.99</ele>
        <time>2021-03-14T10:19:40Z</time>
      </trkpt>
      <trkpt lat="44.89199" lon="4.71695">
        <ele>737.47</ele>
        <time>2021-03-14T10:19:52Z</time>
      </trkpt>
      <trkpt lat="44.89194" lon="4.7171">
        <ele>738.91</ele>
        <time>2021-03-14T10:20:02Z</time>
      </trkpt>
      <trkpt lat="44.89192" lon="4.71714">
        <ele>738.91</ele>
        <time>2021-03-14T10:20:05Z</time>
      </trkpt>
      <trkpt lat="44.89184" lon="4.71735">
        <ele>740.35</ele>
        <time>2021-03-14T10:20:20Z</time>
      </trkpt>
      <trkpt lat="44.89184" lon="4.71736">
        <ele>740.83</ele>
        <time>2021-03-14T10:20:21Z</time>
      </trkpt>
      <trkpt lat="44.8918" lon="4.71748">
        <ele>741.31</ele>
        <time>2021-03-14T10:20:36Z</time>
      </trkpt>
      <trkpt lat="44.89178" lon="4.71755">
        <ele>741.31</ele>
        <time>2021-03-14T10:20:42Z</time>
      </trkpt>
      <trkpt lat="44.89179" lon="4.71772">
        <ele>742.76</ele>
        <time>2021-03-14T10:20:52Z</time>
      </trkpt>
      <trkpt lat="44.89179" lon="4.71782">
        <ele>744.2</ele>
        <time>2021-03-14T10:20:59Z</time>
      </trkpt>
      <trkpt lat="44.8918" lon="4.71804">
        <ele>745.64</ele>
        <time>2021-03-14T10:21:12Z</time>
      </trkpt>
      <trkpt lat="44.89186" lon="4.71828">
        <ele>747.08</ele>
        <time>2021-03-14T10:21:24Z</time>
      </trkpt>
      <trkpt lat="44.89188" lon="4.71836">
        <ele>747.08</ele>
        <time>2021-03-14T10:21:34Z</time>
      </trkpt>
      <trkpt lat="44.89182" lon="4.71839">
        <ele>746.6</ele>
        <time>2021-03-14T10:21:45Z</time>
      </trkpt>
      <trkpt lat="44.89174" lon="4.71842">
        <ele>746.6</ele>
        <time>2021-03-14T10:21:51Z</time>
      </trkpt>
      <trkpt lat="44.89156" lon="4.71855">
        <ele>745.64</ele>
        <time>2021-03-14T10:22:03Z</time>
      </trkpt>
      <trkpt lat="44.89144" lon="4.71862">
        <ele>744.68</ele>
        <time>2021-03-14T10:22:16Z</time>
      </trkpt>
      <trkpt lat="44.8914" lon="4.71863">
        <ele>745.64</ele>
        <time>2021-03-14T10:22:20Z</time>
      </trkpt>
      <trkpt lat="44.89135" lon="4.71864">
        <ele>745.16</ele>
        <time>2021-03-14T10:22:23Z</time>
      </trkpt>
      <trkpt lat="44.89124" lon="4.71865">
        <ele>745.64</ele>
        <time>2021-03-14T10:22:32Z</time>
      </trkpt>
      <trkpt lat="44.8912" lon="4.71866">
        <ele>745.64</ele>
        <time>2021-03-14T10:22:34Z</time>
      </trkpt>
      <trkpt lat="44.89116" lon="4.71868">
        <ele>746.12</ele>
        <time>2021-03-14T10:22:38Z</time>
      </trkpt>
      <trkpt lat="44.89108" lon="4.7187">
        <ele>747.56</ele>
        <time>2021-03-14T10:22:44Z</time>
      </trkpt>
      <trkpt lat="44.89098" lon="4.71869">
        <ele>747.08</ele>
        <time>2021-03-14T10:22:52Z</time>
      </trkpt>
      <trkpt lat="44.89088" lon="4.71869">
        <ele>747.56</ele>
        <time>2021-03-14T10:22:59Z</time>
      </trkpt>
      <trkpt lat="44.89078" lon="4.71868">
        <ele>747.56</ele>
        <time>2021-03-14T10:23:10Z</time>
      </trkpt>
      <trkpt lat="44.89069" lon="4.71868">
        <ele>748.52</ele>
        <time>2021-03-14T10:23:20Z</time>
      </trkpt>
      <trkpt lat="44.89056" lon="4.71865">
        <ele>749.49</ele>
        <time>2021-03-14T10:23:29Z</time>
      </trkpt>
      <trkpt lat="44.89053" lon="4.71864">
        <ele>749.49</ele>
        <time>2021-03-14T10:23:31Z</time>
      </trkpt>
      <trkpt lat="44.8904" lon="4.71861">
        <ele>749.49</ele>
        <time>2021-03-14T10:23:42Z</time>
      </trkpt>
      <trkpt lat="44.89034" lon="4.71858">
        <ele>749.49</ele>
        <time>2021-03-14T10:23:48Z</time>
      </trkpt>
      <trkpt lat="44.89022" lon="4.71852">
        <ele>749</ele>
        <time>2021-03-14T10:23:55Z</time>
      </trkpt>
      <trkpt lat="44.8902" lon="4.71853">
        <ele>749</ele>
        <time>2021-03-14T10:23:57Z</time>
      </trkpt>
      <trkpt lat="44.89008" lon="4.71845">
        <ele>749</ele>
        <time>2021-03-14T10:24:06Z</time>
      </trkpt>
      <trkpt lat="44.88993" lon="4.71845">
        <ele>748.52</ele>
        <time>2021-03-14T10:24:17Z</time>
      </trkpt>
      <trkpt lat="44.88992" lon="4.71845">
        <ele>748.52</ele>
        <time>2021-03-14T10:24:20Z</time>
      </trkpt>
      <trkpt lat="44.8898" lon="4.71841">
        <ele>748.52</ele>
        <time>2021-03-14T10:24:30Z</time>
      </trkpt>
      <trkpt lat="44.8897" lon="4.71831">
        <ele>748.04</ele>
        <time>2021-03-14T10:24:38Z</time>
      </trkpt>
      <trkpt lat="44.88966" lon="4.71827">
        <ele>749</ele>
        <time>2021-03-14T10:24:41Z</time>
      </trkpt>
      <trkpt lat="44.88947" lon="4.71811">
        <ele>748.04</ele>
        <time>2021-03-14T10:24:57Z</time>
      </trkpt>
      <trkpt lat="44.88933" lon="4.71803">
        <ele>748.52</ele>
        <time>2021-03-14T10:25:10Z</time>
      </trkpt>
      <trkpt lat="44.88925" lon="4.71803">
        <ele>748.04</ele>
        <time>2021-03-14T10:25:16Z</time>
      </trkpt>
      <trkpt lat="44.8892" lon="4.71802">
        <ele>749</ele>
        <time>2021-03-14T10:25:19Z</time>
      </trkpt>
      <trkpt lat="44.88912" lon="4.71803">
        <ele>750.45</ele>
        <time>2021-03-14T10:25:24Z</time>
      </trkpt>
      <trkpt lat="44.88907" lon="4.71801">
        <ele>750.45</ele>
        <time>2021-03-14T10:25:28Z</time>
      </trkpt>
      <trkpt lat="44.88885" lon="4.71791">
        <ele>750.45</ele>
        <time>2021-03-14T10:25:42Z</time>
      </trkpt>
      <trkpt lat="44.88884" lon="4.71789">
        <ele>750.93</ele>
        <time>2021-03-14T10:25:43Z</time>
      </trkpt>
      <trkpt lat="44.88882" lon="4.71787">
        <ele>750.45</ele>
        <time>2021-03-14T10:25:45Z</time>
      </trkpt>
      <trkpt lat="44.88879" lon="4.7178">
        <ele>750.45</ele>
        <time>2021-03-14T10:25:52Z</time>
      </trkpt>
      <trkpt lat="44.88876" lon="4.71776">
        <ele>750.45</ele>
        <time>2021-03-14T10:25:55Z</time>
      </trkpt>
      <trkpt lat="44.88867" lon="4.71763">
        <ele>750.93</ele>
        <time>2021-03-14T10:26:07Z</time>
      </trkpt>
      <trkpt lat="44.8886" lon="4.71749">
        <ele>751.41</ele>
        <time>2021-03-14T10:26:16Z</time>
      </trkpt>
      <trkpt lat="44.88856" lon="4.71742">
        <ele>751.41</ele>
        <time>2021-03-14T10:26:21Z</time>
      </trkpt>
      <trkpt lat="44.88852" lon="4.71735">
        <ele>752.37</ele>
        <time>2021-03-14T10:26:34Z</time>
      </trkpt>
      <trkpt lat="44.88845" lon="4.71731">
        <ele>752.85</ele>
        <time>2021-03-14T10:26:50Z</time>
      </trkpt>
      <trkpt lat="44.88841" lon="4.71728">
        <ele>752.85</ele>
        <time>2021-03-14T10:26:53Z</time>
      </trkpt>
      <trkpt lat="44.88827" lon="4.71719">
        <ele>752.85</ele>
        <time>2021-03-14T10:27:03Z</time>
      </trkpt>
      <trkpt lat="44.88823" lon="4.71713">
        <ele>752.37</ele>
        <time>2021-03-14T10:27:07Z</time>
      </trkpt>
      <trkpt lat="44.88812" lon="4.71699">
        <ele>752.85</ele>
        <time>2021-03-14T10:27:17Z</time>
      </trkpt>
      <trkpt lat="44.88811" lon="4.71697">
        <ele>752.85</ele>
        <time>2021-03-14T10:27:18Z</time>
      </trkpt>
      <trkpt lat="44.88794" lon="4.71686">
        <ele>752.37</ele>
        <time>2021-03-14T10:27:33Z</time>
      </trkpt>
      <trkpt lat="44.88788" lon="4.71684">
        <ele>752.85</ele>
        <time>2021-03-14T10:27:37Z</time>
      </trkpt>
      <trkpt lat="44.88776" lon="4.71675">
        <ele>753.33</ele>
        <time>2021-03-14T10:27:48Z</time>
      </trkpt>
      <trkpt lat="44.88761" lon="4.71664">
        <ele>753.33</ele>
        <time>2021-03-14T10:28:01Z</time>
      </trkpt>
      <trkpt lat="44.88749" lon="4.71656">
        <ele>752.85</ele>
        <time>2021-03-14T10:28:11Z</time>
      </trkpt>
      <trkpt lat="44.88736" lon="4.71648">
        <ele>753.81</ele>
        <time>2021-03-14T10:28:23Z</time>
      </trkpt>
      <trkpt lat="44.88729" lon="4.71645">
        <ele>753.81</ele>
        <time>2021-03-14T10:28:27Z</time>
      </trkpt>
      <trkpt lat="44.88715" lon="4.71638">
        <ele>753.81</ele>
        <time>2021-03-14T10:28:39Z</time>
      </trkpt>
      <trkpt lat="44.8871" lon="4.71636">
        <ele>753.81</ele>
        <time>2021-03-14T10:28:43Z</time>
      </trkpt>
      <trkpt lat="44.88691" lon="4.71622">
        <ele>753.81</ele>
        <time>2021-03-14T10:28:57Z</time>
      </trkpt>
      <trkpt lat="44.88687" lon="4.71622">
        <ele>753.81</ele>
        <time>2021-03-14T10:28:59Z</time>
      </trkpt>
      <trkpt lat="44.88679" lon="4.71613">
        <ele>754.29</ele>
        <time>2021-03-14T10:29:12Z</time>
      </trkpt>
      <trkpt lat="44.88679" lon="4.71612">
        <ele>754.29</ele>
        <time>2021-03-14T10:29:28Z</time>
      </trkpt>
      <trkpt lat="44.88679" lon="4.71612">
        <ele>754.29</ele>
        <time>2021-03-14T10:29:30Z</time>
      </trkpt>
      <trkpt lat="44.8868" lon="4.71607">
        <ele>754.77</ele>
        <time>2021-03-14T10:29:33Z</time>
      </trkpt>
      <trkpt lat="44.88684" lon="4.71596">
        <ele>753.81</ele>
        <time>2021-03-14T10:29:47Z</time>
      </trkpt>
      <trkpt lat="44.88684" lon="4.71596">
        <ele>753.81</ele>
        <time>2021-03-14T10:30:11Z</time>
      </trkpt>
      <trkpt lat="44.88684" lon="4.71595">
        <ele>754.29</ele>
        <time>2021-03-14T10:30:44Z</time>
      </trkpt>
      <trkpt lat="44.88684" lon="4.71595">
        <ele>754.29</ele>
        <time>2021-03-14T10:31:16Z</time>
      </trkpt>
      <trkpt lat="44.88683" lon="4.71596">
        <ele>754.77</ele>
        <time>2021-03-14T10:31:18Z</time>
      </trkpt>
      <trkpt lat="44.8868" lon="4.71601">
        <ele>755.25</ele>
        <time>2021-03-14T10:31:22Z</time>
      </trkpt>
      <trkpt lat="44.88679" lon="4.71607">
        <ele>755.25</ele>
        <time>2021-03-14T10:31:38Z</time>
      </trkpt>
      <trkpt lat="44.88678" lon="4.71607">
        <ele>755.25</ele>
        <time>2021-03-14T10:32:01Z</time>
      </trkpt>
      <trkpt lat="44.88661" lon="4.71608">
        <ele>753.81</ele>
        <time>2021-03-14T10:32:17Z</time>
      </trkpt>
      <trkpt lat="44.88646" lon="4.71603">
        <ele>755.73</ele>
        <time>2021-03-14T10:32:30Z</time>
      </trkpt>
      <trkpt lat="44.88637" lon="4.716">
        <ele>753.81</ele>
        <time>2021-03-14T10:32:39Z</time>
      </trkpt>
      <trkpt lat="44.88617" lon="4.71593">
        <ele>753.81</ele>
        <time>2021-03-14T10:32:52Z</time>
      </trkpt>
      <trkpt lat="44.88614" lon="4.71592">
        <ele>753.81</ele>
        <time>2021-03-14T10:32:55Z</time>
      </trkpt>
      <trkpt lat="44.88596" lon="4.71585">
        <ele>754.29</ele>
        <time>2021-03-14T10:33:09Z</time>
      </trkpt>
      <trkpt lat="44.8858" lon="4.71579">
        <ele>754.29</ele>
        <time>2021-03-14T10:33:20Z</time>
      </trkpt>
      <trkpt lat="44.88564" lon="4.71571">
        <ele>754.29</ele>
        <time>2021-03-14T10:33:33Z</time>
      </trkpt>
      <trkpt lat="44.88556" lon="4.71566">
        <ele>754.77</ele>
        <time>2021-03-14T10:33:40Z</time>
      </trkpt>
      <trkpt lat="44.88547" lon="4.71565">
        <ele>755.73</ele>
        <time>2021-03-14T10:33:48Z</time>
      </trkpt>
      <trkpt lat="44.8854" lon="4.71563">
        <ele>756.21</ele>
        <time>2021-03-14T10:33:52Z</time>
      </trkpt>
      <trkpt lat="44.88532" lon="4.7156">
        <ele>756.21</ele>
        <time>2021-03-14T10:33:58Z</time>
      </trkpt>
      <trkpt lat="44.88519" lon="4.71554">
        <ele>757.18</ele>
        <time>2021-03-14T10:34:09Z</time>
      </trkpt>
      <trkpt lat="44.88516" lon="4.71553">
        <ele>757.18</ele>
        <time>2021-03-14T10:34:11Z</time>
      </trkpt>
      <trkpt lat="44.885" lon="4.7155">
        <ele>758.62</ele>
        <time>2021-03-14T10:34:24Z</time>
      </trkpt>
      <trkpt lat="44.88496" lon="4.71549">
        <ele>758.62</ele>
        <time>2021-03-14T10:34:28Z</time>
      </trkpt>
      <trkpt lat="44.88492" lon="4.71547">
        <ele>758.62</ele>
        <time>2021-03-14T10:34:31Z</time>
      </trkpt>
      <trkpt lat="44.88485" lon="4.71544">
        <ele>759.1</ele>
        <time>2021-03-14T10:34:37Z</time>
      </trkpt>
      <trkpt lat="44.88481" lon="4.71539">
        <ele>760.06</ele>
        <time>2021-03-14T10:34:42Z</time>
      </trkpt>
      <trkpt lat="44.88472" lon="4.71533">
        <ele>760.54</ele>
        <time>2021-03-14T10:34:49Z</time>
      </trkpt>
      <trkpt lat="44.88464" lon="4.71529">
        <ele>761.02</ele>
        <time>2021-03-14T10:34:56Z</time>
      </trkpt>
      <trkpt lat="44.88459" lon="4.71527">
        <ele>762.46</ele>
        <time>2021-03-14T10:35:02Z</time>
      </trkpt>
      <trkpt lat="44.88449" lon="4.7152">
        <ele>762.94</ele>
        <time>2021-03-14T10:35:15Z</time>
      </trkpt>
      <trkpt lat="44.88438" lon="4.71522">
        <ele>764.39</ele>
        <time>2021-03-14T10:35:25Z</time>
      </trkpt>
      <trkpt lat="44.88426" lon="4.71515">
        <ele>765.83</ele>
        <time>2021-03-14T10:35:39Z</time>
      </trkpt>
      <trkpt lat="44.88405" lon="4.71497">
        <ele>766.79</ele>
        <time>2021-03-14T10:35:52Z</time>
      </trkpt>
      <trkpt lat="44.88397" lon="4.71496">
        <ele>767.75</ele>
        <time>2021-03-14T10:35:59Z</time>
      </trkpt>
      <trkpt lat="44.88386" lon="4.71495">
        <ele>767.75</ele>
        <time>2021-03-14T10:36:09Z</time>
      </trkpt>
      <trkpt lat="44.88369" lon="4.71492">
        <ele>768.23</ele>
        <time>2021-03-14T10:36:21Z</time>
      </trkpt>
      <trkpt lat="44.88365" lon="4.71489">
        <ele>768.71</ele>
        <time>2021-03-14T10:36:26Z</time>
      </trkpt>
      <trkpt lat="44.88347" lon="4.7148">
        <ele>768.71</ele>
        <time>2021-03-14T10:36:42Z</time>
      </trkpt>
      <trkpt lat="44.88336" lon="4.71472">
        <ele>769.67</ele>
        <time>2021-03-14T10:36:51Z</time>
      </trkpt>
      <trkpt lat="44.88316" lon="4.71468">
        <ele>770.63</ele>
        <time>2021-03-14T10:37:07Z</time>
      </trkpt>
      <trkpt lat="44.88302" lon="4.71462">
        <ele>771.11</ele>
        <time>2021-03-14T10:37:22Z</time>
      </trkpt>
      <trkpt lat="44.88295" lon="4.71466">
        <ele>772.08</ele>
        <time>2021-03-14T10:37:34Z</time>
      </trkpt>
      <trkpt lat="44.88288" lon="4.71462">
        <ele>773.04</ele>
        <time>2021-03-14T10:37:46Z</time>
      </trkpt>
      <trkpt lat="44.88287" lon="4.71462">
        <ele>773.04</ele>
        <time>2021-03-14T10:38:11Z</time>
      </trkpt>
      <trkpt lat="44.88283" lon="4.71463">
        <ele>773.04</ele>
        <time>2021-03-14T10:38:14Z</time>
      </trkpt>
      <trkpt lat="44.88268" lon="4.71456">
        <ele>774.48</ele>
        <time>2021-03-14T10:38:28Z</time>
      </trkpt>
      <trkpt lat="44.88244" lon="4.71443">
        <ele>776.88</ele>
        <time>2021-03-14T10:38:41Z</time>
      </trkpt>
      <trkpt lat="44.88221" lon="4.71435">
        <ele>778.32</ele>
        <time>2021-03-14T10:38:57Z</time>
      </trkpt>
      <trkpt lat="44.88217" lon="4.71432">
        <ele>778.32</ele>
        <time>2021-03-14T10:39:01Z</time>
      </trkpt>
      <trkpt lat="44.88209" lon="4.71427">
        <ele>778.81</ele>
        <time>2021-03-14T10:39:07Z</time>
      </trkpt>
      <trkpt lat="44.88196" lon="4.71419">
        <ele>779.29</ele>
        <time>2021-03-14T10:39:19Z</time>
      </trkpt>
      <trkpt lat="44.88192" lon="4.71414">
        <ele>778.81</ele>
        <time>2021-03-14T10:39:27Z</time>
      </trkpt>
      <trkpt lat="44.88189" lon="4.71411">
        <ele>778.32</ele>
        <time>2021-03-14T10:39:29Z</time>
      </trkpt>
      <trkpt lat="44.8817" lon="4.7139">
        <ele>778.81</ele>
        <time>2021-03-14T10:39:45Z</time>
      </trkpt>
      <trkpt lat="44.88161" lon="4.71378">
        <ele>777.84</ele>
        <time>2021-03-14T10:39:57Z</time>
      </trkpt>
      <trkpt lat="44.88156" lon="4.7137">
        <ele>777.36</ele>
        <time>2021-03-14T10:40:01Z</time>
      </trkpt>
      <trkpt lat="44.88139" lon="4.71352">
        <ele>775.92</ele>
        <time>2021-03-14T10:40:17Z</time>
      </trkpt>
      <trkpt lat="44.88119" lon="4.71337">
        <ele>774.48</ele>
        <time>2021-03-14T10:40:32Z</time>
      </trkpt>
      <trkpt lat="44.88106" lon="4.71329">
        <ele>774</ele>
        <time>2021-03-14T10:40:47Z</time>
      </trkpt>
      <trkpt lat="44.8809" lon="4.71317">
        <ele>774</ele>
        <time>2021-03-14T10:41:03Z</time>
      </trkpt>
      <trkpt lat="44.88077" lon="4.71304">
        <ele>774.48</ele>
        <time>2021-03-14T10:41:17Z</time>
      </trkpt>
      <trkpt lat="44.88063" lon="4.71293">
        <ele>774.96</ele>
        <time>2021-03-14T10:41:28Z</time>
      </trkpt>
      <trkpt lat="44.88041" lon="4.71268">
        <ele>775.44</ele>
        <time>2021-03-14T10:41:44Z</time>
      </trkpt>
      <trkpt lat="44.88023" lon="4.71255">
        <ele>775.92</ele>
        <time>2021-03-14T10:42:01Z</time>
      </trkpt>
      <trkpt lat="44.88021" lon="4.71253">
        <ele>775.92</ele>
        <time>2021-03-14T10:42:03Z</time>
      </trkpt>
      <trkpt lat="44.88019" lon="4.71252">
        <ele>775.92</ele>
        <time>2021-03-14T10:42:05Z</time>
      </trkpt>
      <trkpt lat="44.88006" lon="4.71245">
        <ele>776.4</ele>
        <time>2021-03-14T10:42:21Z</time>
      </trkpt>
      <trkpt lat="44.88001" lon="4.71242">
        <ele>775.44</ele>
        <time>2021-03-14T10:42:27Z</time>
      </trkpt>
      <trkpt lat="44.87986" lon="4.71233">
        <ele>775.44</ele>
        <time>2021-03-14T10:42:40Z</time>
      </trkpt>
      <trkpt lat="44.87965" lon="4.7122">
        <ele>775.44</ele>
        <time>2021-03-14T10:42:55Z</time>
      </trkpt>
      <trkpt lat="44.87953" lon="4.71207">
        <ele>775.44</ele>
        <time>2021-03-14T10:43:04Z</time>
      </trkpt>
      <trkpt lat="44.87942" lon="4.71199">
        <ele>775.44</ele>
        <time>2021-03-14T10:43:14Z</time>
      </trkpt>
      <trkpt lat="44.87923" lon="4.71187">
        <ele>775.92</ele>
        <time>2021-03-14T10:43:29Z</time>
      </trkpt>
      <trkpt lat="44.87922" lon="4.71188">
        <ele>775.92</ele>
        <time>2021-03-14T10:43:30Z</time>
      </trkpt>
      <trkpt lat="44.8791" lon="4.71185">
        <ele>776.4</ele>
        <time>2021-03-14T10:43:43Z</time>
      </trkpt>
      <trkpt lat="44.87893" lon="4.71176">
        <ele>776.88</ele>
        <time>2021-03-14T10:43:57Z</time>
      </trkpt>
      <trkpt lat="44.87879" lon="4.71171">
        <ele>778.32</ele>
        <time>2021-03-14T10:44:13Z</time>
      </trkpt>
      <trkpt lat="44.87866" lon="4.71166">
        <ele>778.81</ele>
        <time>2021-03-14T10:44:25Z</time>
      </trkpt>
      <trkpt lat="44.87859" lon="4.71165">
        <ele>779.29</ele>
        <time>2021-03-14T10:44:32Z</time>
      </trkpt>
      <trkpt lat="44.87855" lon="4.71165">
        <ele>779.77</ele>
        <time>2021-03-14T10:44:34Z</time>
      </trkpt>
      <trkpt lat="44.87847" lon="4.71157">
        <ele>779.77</ele>
        <time>2021-03-14T10:44:40Z</time>
      </trkpt>
      <trkpt lat="44.87833" lon="4.71149">
        <ele>780.73</ele>
        <time>2021-03-14T10:44:53Z</time>
      </trkpt>
      <trkpt lat="44.87814" lon="4.71137">
        <ele>781.21</ele>
        <time>2021-03-14T10:45:07Z</time>
      </trkpt>
      <trkpt lat="44.87802" lon="4.71127">
        <ele>782.17</ele>
        <time>2021-03-14T10:45:25Z</time>
      </trkpt>
      <trkpt lat="44.87789" lon="4.71121">
        <ele>782.17</ele>
        <time>2021-03-14T10:45:39Z</time>
      </trkpt>
      <trkpt lat="44.87784" lon="4.71118">
        <ele>782.17</ele>
        <time>2021-03-14T10:45:45Z</time>
      </trkpt>
      <trkpt lat="44.87763" lon="4.71103">
        <ele>783.13</ele>
        <time>2021-03-14T10:46:00Z</time>
      </trkpt>
      <trkpt lat="44.87745" lon="4.71089">
        <ele>784.09</ele>
        <time>2021-03-14T10:46:14Z</time>
      </trkpt>
      <trkpt lat="44.8773" lon="4.71071">
        <ele>784.57</ele>
        <time>2021-03-14T10:46:33Z</time>
      </trkpt>
      <trkpt lat="44.87723" lon="4.71063">
        <ele>784.57</ele>
        <time>2021-03-14T10:46:46Z</time>
      </trkpt>
      <trkpt lat="44.87715" lon="4.71064">
        <ele>784.09</ele>
        <time>2021-03-14T10:47:01Z</time>
      </trkpt>
      <trkpt lat="44.87707" lon="4.71062">
        <ele>784.09</ele>
        <time>2021-03-14T10:47:08Z</time>
      </trkpt>
      <trkpt lat="44.87701" lon="4.71058">
        <ele>782.65</ele>
        <time>2021-03-14T10:47:12Z</time>
      </trkpt>
      <trkpt lat="44.87682" lon="4.7105">
        <ele>782.17</ele>
        <time>2021-03-14T10:47:25Z</time>
      </trkpt>
      <trkpt lat="44.87655" lon="4.71043">
        <ele>781.21</ele>
        <time>2021-03-14T10:47:36Z</time>
      </trkpt>
      <trkpt lat="44.87638" lon="4.71041">
        <ele>780.73</ele>
        <time>2021-03-14T10:47:48Z</time>
      </trkpt>
      <trkpt lat="44.87633" lon="4.71042">
        <ele>779.77</ele>
        <time>2021-03-14T10:47:58Z</time>
      </trkpt>
      <trkpt lat="44.87615" lon="4.7104">
        <ele>778.32</ele>
        <time>2021-03-14T10:48:12Z</time>
      </trkpt>
      <trkpt lat="44.876" lon="4.71033">
        <ele>776.88</ele>
        <time>2021-03-14T10:48:24Z</time>
      </trkpt>
      <trkpt lat="44.87589" lon="4.71032">
        <ele>776.88</ele>
        <time>2021-03-14T10:48:34Z</time>
      </trkpt>
      <trkpt lat="44.87576" lon="4.71034">
        <ele>775.44</ele>
        <time>2021-03-14T10:48:47Z</time>
      </trkpt>
      <trkpt lat="44.8757" lon="4.71036">
        <ele>774.48</ele>
        <time>2021-03-14T10:49:01Z</time>
      </trkpt>
      <trkpt lat="44.87558" lon="4.71028">
        <ele>774</ele>
        <time>2021-03-14T10:49:15Z</time>
      </trkpt>
      <trkpt lat="44.87546" lon="4.71022">
        <ele>773.04</ele>
        <time>2021-03-14T10:49:26Z</time>
      </trkpt>
      <trkpt lat="44.87527" lon="4.71006">
        <ele>771.6</ele>
        <time>2021-03-14T10:49:41Z</time>
      </trkpt>
      <trkpt lat="44.87507" lon="4.70997">
        <ele>769.67</ele>
        <time>2021-03-14T10:49:56Z</time>
      </trkpt>
      <trkpt lat="44.87502" lon="4.70993">
        <ele>769.19</ele>
        <time>2021-03-14T10:49:59Z</time>
      </trkpt>
      <trkpt lat="44.87497" lon="4.70988">
        <ele>769.19</ele>
        <time>2021-03-14T10:50:01Z</time>
      </trkpt>
      <trkpt lat="44.87489" lon="4.70982">
        <ele>768.71</ele>
        <time>2021-03-14T10:50:06Z</time>
      </trkpt>
      <trkpt lat="44.87476" lon="4.70977">
        <ele>766.79</ele>
        <time>2021-03-14T10:50:18Z</time>
      </trkpt>
      <trkpt lat="44.87465" lon="4.70969">
        <ele>765.35</ele>
        <time>2021-03-14T10:50:29Z</time>
      </trkpt>
      <trkpt lat="44.87458" lon="4.70965">
        <ele>764.87</ele>
        <time>2021-03-14T10:50:33Z</time>
      </trkpt>
      <trkpt lat="44.87449" lon="4.70958">
        <ele>763.9</ele>
        <time>2021-03-14T10:50:44Z</time>
      </trkpt>
      <trkpt lat="44.87449" lon="4.70957">
        <ele>763.9</ele>
        <time>2021-03-14T10:50:45Z</time>
      </trkpt>
      <trkpt lat="44.87444" lon="4.70949">
        <ele>762.46</ele>
        <time>2021-03-14T10:50:53Z</time>
      </trkpt>
      <trkpt lat="44.87441" lon="4.70945">
        <ele>761.5</ele>
        <time>2021-03-14T10:50:56Z</time>
      </trkpt>
      <trkpt lat="44.8743" lon="4.70936">
        <ele>759.58</ele>
        <time>2021-03-14T10:51:09Z</time>
      </trkpt>
      <trkpt lat="44.87428" lon="4.70937">
        <ele>759.1</ele>
        <time>2021-03-14T10:51:11Z</time>
      </trkpt>
      <trkpt lat="44.87424" lon="4.70933">
        <ele>758.62</ele>
        <time>2021-03-14T10:51:17Z</time>
      </trkpt>
      <trkpt lat="44.87421" lon="4.70927">
        <ele>758.14</ele>
        <time>2021-03-14T10:51:20Z</time>
      </trkpt>
      <trkpt lat="44.87409" lon="4.70901">
        <ele>757.18</ele>
        <time>2021-03-14T10:51:34Z</time>
      </trkpt>
      <trkpt lat="44.87401" lon="4.70886">
        <ele>755.73</ele>
        <time>2021-03-14T10:51:49Z</time>
      </trkpt>
      <trkpt lat="44.87382" lon="4.70864">
        <ele>755.73</ele>
        <time>2021-03-14T10:52:03Z</time>
      </trkpt>
      <trkpt lat="44.87374" lon="4.7086">
        <ele>755.73</ele>
        <time>2021-03-14T10:52:12Z</time>
      </trkpt>
      <trkpt lat="44.87368" lon="4.7085">
        <ele>755.73</ele>
        <time>2021-03-14T10:52:20Z</time>
      </trkpt>
      <trkpt lat="44.87354" lon="4.70832">
        <ele>755.73</ele>
        <time>2021-03-14T10:52:34Z</time>
      </trkpt>
      <trkpt lat="44.87349" lon="4.70826">
        <ele>756.21</ele>
        <time>2021-03-14T10:52:40Z</time>
      </trkpt>
      <trkpt lat="44.87343" lon="4.7082">
        <ele>756.21</ele>
        <time>2021-03-14T10:52:45Z</time>
      </trkpt>
      <trkpt lat="44.8733" lon="4.70804">
        <ele>758.14</ele>
        <time>2021-03-14T10:53:00Z</time>
      </trkpt>
      <trkpt lat="44.87328" lon="4.70801">
        <ele>758.14</ele>
        <time>2021-03-14T10:53:03Z</time>
      </trkpt>
      <trkpt lat="44.87315" lon="4.70793">
        <ele>760.06</ele>
        <time>2021-03-14T10:53:18Z</time>
      </trkpt>
      <trkpt lat="44.87303" lon="4.70778">
        <ele>761.98</ele>
        <time>2021-03-14T10:53:33Z</time>
      </trkpt>
      <trkpt lat="44.87299" lon="4.70771">
        <ele>762.46</ele>
        <time>2021-03-14T10:53:40Z</time>
      </trkpt>
      <trkpt lat="44.87285" lon="4.70748">
        <ele>763.9</ele>
        <time>2021-03-14T10:53:56Z</time>
      </trkpt>
      <trkpt lat="44.87273" lon="4.70735">
        <ele>765.83</ele>
        <time>2021-03-14T10:54:07Z</time>
      </trkpt>
      <trkpt lat="44.87265" lon="4.70724">
        <ele>766.79</ele>
        <time>2021-03-14T10:54:16Z</time>
      </trkpt>
      <trkpt lat="44.87261" lon="4.70714">
        <ele>767.27</ele>
        <time>2021-03-14T10:54:24Z</time>
      </trkpt>
      <trkpt lat="44.87251" lon="4.70696">
        <ele>767.27</ele>
        <time>2021-03-14T10:54:35Z</time>
      </trkpt>
      <trkpt lat="44.87242" lon="4.70678">
        <ele>765.35</ele>
        <time>2021-03-14T10:54:49Z</time>
      </trkpt>
      <trkpt lat="44.87238" lon="4.70676">
        <ele>763.9</ele>
        <time>2021-03-14T10:55:02Z</time>
      </trkpt>
      <trkpt lat="44.87227" lon="4.70665">
        <ele>761.5</ele>
        <time>2021-03-14T10:55:18Z</time>
      </trkpt>
      <trkpt lat="44.87211" lon="4.70644">
        <ele>759.1</ele>
        <time>2021-03-14T10:55:34Z</time>
      </trkpt>
      <trkpt lat="44.87209" lon="4.70641">
        <ele>759.1</ele>
        <time>2021-03-14T10:55:36Z</time>
      </trkpt>
      <trkpt lat="44.87207" lon="4.70637">
        <ele>758.62</ele>
        <time>2021-03-14T10:55:38Z</time>
      </trkpt>
      <trkpt lat="44.87196" lon="4.70625">
        <ele>757.18</ele>
        <time>2021-03-14T10:55:52Z</time>
      </trkpt>
      <trkpt lat="44.87188" lon="4.70612">
        <ele>757.18</ele>
        <time>2021-03-14T10:56:03Z</time>
      </trkpt>
      <trkpt lat="44.87186" lon="4.70609">
        <ele>756.69</ele>
        <time>2021-03-14T10:56:05Z</time>
      </trkpt>
      <trkpt lat="44.87183" lon="4.70603">
        <ele>756.69</ele>
        <time>2021-03-14T10:56:09Z</time>
      </trkpt>
      <trkpt lat="44.87169" lon="4.70585">
        <ele>756.69</ele>
        <time>2021-03-14T10:56:20Z</time>
      </trkpt>
      <trkpt lat="44.87167" lon="4.70581">
        <ele>756.21</ele>
        <time>2021-03-14T10:56:23Z</time>
      </trkpt>
      <trkpt lat="44.87154" lon="4.70565">
        <ele>756.21</ele>
        <time>2021-03-14T10:56:38Z</time>
      </trkpt>
      <trkpt lat="44.87144" lon="4.70545">
        <ele>755.25</ele>
        <time>2021-03-14T10:56:52Z</time>
      </trkpt>
      <trkpt lat="44.87143" lon="4.70543">
        <ele>755.25</ele>
        <time>2021-03-14T10:56:53Z</time>
      </trkpt>
      <trkpt lat="44.87139" lon="4.70538">
        <ele>754.29</ele>
        <time>2021-03-14T10:56:59Z</time>
      </trkpt>
      <trkpt lat="44.87131" lon="4.70521">
        <ele>753.81</ele>
        <time>2021-03-14T10:57:10Z</time>
      </trkpt>
      <trkpt lat="44.87128" lon="4.70512">
        <ele>753.33</ele>
        <time>2021-03-14T10:57:15Z</time>
      </trkpt>
      <trkpt lat="44.87126" lon="4.70508">
        <ele>753.33</ele>
        <time>2021-03-14T10:57:19Z</time>
      </trkpt>
      <trkpt lat="44.87125" lon="4.70505">
        <ele>752.85</ele>
        <time>2021-03-14T10:57:21Z</time>
      </trkpt>
      <trkpt lat="44.87119" lon="4.70482">
        <ele>751.41</ele>
        <time>2021-03-14T10:57:35Z</time>
      </trkpt>
      <trkpt lat="44.87117" lon="4.70465">
        <ele>749.97</ele>
        <time>2021-03-14T10:57:44Z</time>
      </trkpt>
      <trkpt lat="44.87116" lon="4.70459">
        <ele>749.97</ele>
        <time>2021-03-14T10:57:48Z</time>
      </trkpt>
      <trkpt lat="44.87115" lon="4.70448">
        <ele>749</ele>
        <time>2021-03-14T10:57:54Z</time>
      </trkpt>
      <trkpt lat="44.87114" lon="4.70437">
        <ele>748.04</ele>
        <time>2021-03-14T10:58:00Z</time>
      </trkpt>
      <trkpt lat="44.87113" lon="4.70433">
        <ele>748.04</ele>
        <time>2021-03-14T10:58:02Z</time>
      </trkpt>
    </trkseg>
  </trk>
</gpx>